Flight Track Log - Related Links

Times and Time Zones

All times are in EDT time to prevent confusion due to time zone crossing. See the DAL268 flight status page for this flight to view local times or setup timezone preferences in your user account.

Time Position Orientation Groundspeed Altitude Reporting Facility
EDT Latitude Longitude Course Direction KTS MPH feet Rate Location/Type
Wed 12:22:40 AM 40.6360 -73.7810 59° Northeast  Level FlightAware ADS-B
Wed 12:28:00 AM 40.8340 -73.5994 37° Northeast  Level FlightAware Approximate
Wed 12:32:00 AM 40.8616 -73.5717 37° Northeast  Level FlightAware Approximate
Wed 12:35:00 AM 40.8827 -73.5507 37° Northeast  Level FlightAware Approximate
Wed 12:44:00 AM 40.9182 -73.5152 37° Northeast  Level FlightAware Approximate
Wed 12:45:00 AM 41.0348 -73.4138 30° Northeast  Level FlightAware Approximate
Wed 12:48:04 AM 40.6250 -73.7790 303° West 80 92  Level FlightAware ADS-B
Wed 12:48:24 AM 40.6300 -73.7910 299° West 155 178 1,227 Level FlightAware ADS-B
Wed 12:48:48 AM 40.6400 -73.8140 300° West 173 199 900 2,229 Climbing FlightAware ADS-B
Wed 12:48:59 AM 40.6410 -73.8260 276° West 179 206 1,300 2,211 Climbing FlightAware ADS-B
Wed 12:49:07 AM 40.6410 -73.8340 270° West 187 215 1,600 1,364 Climbing FlightAware ADS-B
Wed 12:49:21 AM 40.6360 -73.8490 246° West 214 246 1,800 818 Climbing FlightAware ADS-B
Wed 12:49:29 AM 40.6300 -73.8580 229° Southwest 234 269 1,900 1,071 Climbing FlightAware ADS-B
Wed 12:49:49 AM 40.6120 -73.8770 219° Southwest 256 295 2,300 1,200 Climbing FlightAware ADS-B
Wed 12:50:09 AM 40.5920 -73.8970 217° Southwest 276 318 2,700 1,395 Climbing FlightAware ADS-B
Wed 12:50:32 AM 40.5670 -73.9190 214° Southwest 297 342 3,300 2,057 Climbing FlightAware ADS-B
Wed 12:50:44 AM 40.5520 -73.9290 207° Southwest 301 346 3,900 2,700 Climbing FlightAware ADS-B
Wed 12:50:52 AM 40.5410 -73.9340 199° South 305 351 4,200 2,842 Climbing FlightAware ADS-B
Wed 12:51:03 AM 40.5247 -73.9343 181° South 310 357 4,800 3,176 Climbing FlightAware ADS-B
Wed 12:51:09 AM 40.5160 -73.9318 168° South 313 360 5,100 2,727 Climbing FlightAware ADS-B
Wed 12:51:14 AM 40.5102 -73.9292 161° South 314 361 5,300 2,400 Climbing FlightAware ADS-B
Wed 12:51:19 AM 40.5036 -73.9248 153° Southeast 316 364 5,500 3,000 Climbing FlightAware ADS-B
Wed 12:51:24 AM 40.4973 -73.9191 145° Southeast 319 367 5,800 3,000 Climbing FlightAware ADS-B
Wed 12:51:27 AM 40.4937 -73.9149 138° Southeast 320 368 5,900 3,000 Climbing FlightAware ADS-B
Wed 12:51:32 AM 40.4893 -73.9088 133° Southeast 321 369 6,200 3,333 Climbing FlightAware ADS-B
Wed 12:51:36 AM 40.4856 -73.9022 126° Southeast 323 372 6,400 2,571 Climbing FlightAware ADS-B
Wed 12:51:39 AM 40.4829 -73.8965 122° Southeast 323 372 6,500 2,571 Climbing FlightAware ADS-B
Wed 12:51:43 AM 40.4806 -73.8904 116° Southeast 325 374 6,700 3,429 Climbing FlightAware ADS-B
Wed 12:51:46 AM 40.4789 -73.8846 111° Southeast 325 374 6,900 2,571 Climbing FlightAware ADS-B
Wed 12:51:50 AM 40.4773 -73.8771 106° East 327 376 7,000 2,250 Climbing FlightAware ADS-B
Wed 12:51:54 AM 40.4762 -73.8696 101° East 328 377 7,200 3,000 Climbing FlightAware ADS-B
Wed 12:51:58 AM 40.4757 -73.8611 94° East 331 381 7,400 2,250 Climbing FlightAware ADS-B
Wed 12:52:02 AM 40.4759 -73.8530 88° East 334 384 7,500 2,571 Climbing FlightAware ADS-B
Wed 12:52:05 AM 40.4764 -73.8460 85° East 335 386 7,700 3,000 Climbing FlightAware ADS-B
Wed 12:52:08 AM 40.4775 -73.8395 77° East 336 387 7,800 1,714 Climbing FlightAware ADS-B
Wed 12:52:12 AM 40.4792 -73.8323 73° East 336 387 7,900 2,250 Climbing FlightAware ADS-B
Wed 12:52:16 AM 40.4815 -73.8246 69° East 336 387 8,100 2,571 Climbing FlightAware ADS-B
Wed 12:52:19 AM 40.4838 -73.8190 62° Northeast 338 389 8,200 2,250 Climbing FlightAware ADS-B
Wed 12:52:24 AM 40.4878 -73.8106 58° Northeast 338 389 8,400 2,727 Climbing FlightAware ADS-B
Wed 12:52:30 AM 40.4935 -73.8015 51° Northeast 339 390 8,700 2,667 Climbing FlightAware ADS-B
Wed 12:52:33 AM 40.4970 -73.7968 46° Northeast 339 390 8,800 1,500 Climbing FlightAware ADS-B
Wed 12:52:38 AM 40.5028 -73.7902 41° Northeast 340 391 8,900 1,800 Climbing FlightAware ADS-B
Wed 12:52:43 AM 40.5092 -73.7842 35° Northeast 341 392 9,100 2,700 Climbing FlightAware ADS-B
Wed 12:52:58 AM 40.5296 -73.7686 30° Northeast 337 388 9,800 2,348 Climbing FlightAware ADS-B
Wed 12:53:29 AM 40.5717 -73.7357 31° Northeast 351 404 10,900 1,548 Climbing FlightAware ADS-B
Wed 12:54:00 AM 40.6186 -73.7011 29° Northeast 382 440 11,400 1,182 Climbing FlightAware ADS-B
Wed 12:54:35 AM 40.6745 -73.6604 29° Northeast 398 458 12,200 1,391 Climbing FlightAware ADS-B
Wed 12:55:09 AM 40.7326 -73.6165 30° Northeast 430 495 13,000 1,636 Climbing FlightAware ADS-B
Wed 12:55:41 AM 40.7851 -73.5676 35° Northeast 441 507 14,000 1,826 Climbing FlightAware ADS-B
Wed 12:55:55 AM 40.8073 -73.5416 42° Northeast 453 521 14,400 2,045 Climbing FlightAware ADS-B
Wed 12:56:25 AM 40.8520 -73.4807 46° Northeast 462 532 15,500 2,164 Climbing FlightAware ADS-B
Wed 12:56:56 AM 40.8974 -73.4179 46° Northeast 468 539 16,600 1,967 Climbing FlightAware ADS-B
Wed 12:57:26 AM 40.9424 -73.3545 47° Northeast 478 550 17,500 1,652 Climbing FlightAware ADS-B
Wed 12:58:05 AM 41.0010 -73.2720 47° Northeast 490 564 18,500 1,622 Climbing FlightAware ADS-B
Wed 12:58:40 AM 41.0590 -73.1910 46° Northeast 501 577 19,500 1,680 Climbing FlightAware ADS-B
Wed 12:58:55 AM 41.0821 -73.1579 47° Northeast 489 563 19,900 1,660 Climbing FlightAware ADS-B
Wed 12:59:27 AM 41.1339 -73.0850 47° Northeast 511 588 20,800 1,565 Climbing FlightAware ADS-B
Wed 01:00:27 AM 41.2320 -72.9470 47° Northeast 525 604 22,300 1,500 Climbing FlightAware ADS-B
Wed 01:00:59 AM 41.2860 -72.8720 46° Northeast 531 611 23,100 1,357 Climbing FlightAware ADS-B
Wed 01:01:51 AM 41.3680 -72.7580 46° Northeast 540 621 24,200 894 Climbing FlightAware ADS-B
Wed 01:02:33 AM 41.4320 -72.6690 46° Northeast 542 624 24,500 231 Climbing FlightAware ADS-B
Wed 01:03:09 AM 41.4860 -72.5960 45° Northeast 542 624 24,500  Level FlightAware ADS-B
Wed 01:03:45 AM 41.5390 -72.5220 46° Northeast 542 624 24,500  Level FlightAware ADS-B
Wed 01:04:21 AM 41.5920 -72.4480 46° Northeast 542 624 24,500 3,000 Level FlightAware ADS-B
Wed 01:04:29 AM 40.8490 -73.4850 227° Southwest 27,300 6,857 Climbing FlightAware ADS-B
Wed 01:04:49 AM 41.6750 -72.2990 47° Northeast 576 663 27,700 1,091 Climbing FlightAware ADS-B
Wed 01:05:24 AM 41.7350 -72.2030 50° Northeast 582 670 28,300 1,040 Climbing FlightAware ADS-B
Wed 01:06:04 AM 41.8100 -72.0830 50° Northeast 587 676 29,000 1,114 Climbing FlightAware ADS-B
Wed 01:06:34 AM 41.8580 -72.0070 50° Northeast 587 676 29,600 1,182 Climbing FlightAware ADS-B
Wed 01:07:10 AM 41.9220 -71.9060 50° Northeast 587 676 30,300 1,268 Climbing FlightAware ADS-B
Wed 01:07:45 AM 41.9870 -71.8010 50° Northeast 587 676 31,100 1,151 Climbing FlightAware ADS-B
Wed 01:08:23 AM 42.0520 -71.6940 51° Northeast 589 678 31,700 771 Climbing FlightAware ADS-B
Wed 01:08:55 AM 42.1070 -71.6030 51° Northeast 589 678 32,000 265 Climbing FlightAware ADS-B
Wed 01:09:31 AM 42.1680 -71.5030 51° Northeast 586 674 32,000  Level FlightAware ADS-B
Wed 01:10:07 AM 42.2300 -71.4000 51° Northeast 583 671 32,000  Level FlightAware ADS-B
Wed 01:10:39 AM 42.2840 -71.3100 51° Northeast 581 669 32,000 261 Level FlightAware ADS-B
Wed 01:11:16 AM 42.3430 -71.2110 51° Northeast 581 669 32,300 730 Climbing FlightAware ADS-B
Wed 01:11:53 AM 42.4100 -71.0980 51° Northeast 582 670 32,900 986 Climbing FlightAware ADS-B
Wed 01:12:29 AM 42.4710 -70.9950 51° Northeast 582 670 33,500 1,000 Climbing FlightAware ADS-B
Wed 01:12:59 AM 42.5220 -70.9090 51° Northeast 581 669 34,000 441 Climbing FlightAware ADS-B
Wed 01:13:37 AM 42.5870 -70.7990 51° Northeast 583 671 34,000  Level FlightAware ADS-B
Wed 01:14:09 AM 42.6390 -70.7100 52° Northeast 582 670 34,000  Level FlightAware ADS-B
Wed 01:14:45 AM 42.6990 -70.6080 51° Northeast 582 670 34,000  Level FlightAware ADS-B
Wed 01:15:21 AM 42.7610 -70.5020 51° Northeast 581 669 34,000  Level FlightAware ADS-B
Wed 01:15:57 AM 42.8210 -70.3990 52° Northeast 578 665 34,000  Level FlightAware ADS-B
Wed 01:16:37 AM 42.8830 -70.2910 52° Northeast 576 663 34,000  Level FlightAware ADS-B
Wed 01:17:12 AM 42.9420 -70.1890 52° Northeast 576 663 34,000  Level FlightAware ADS-B
Wed 01:17:46 AM 42.9980 -70.0920 52° Northeast 574 661 34,000  Level FlightAware ADS-B
Wed 01:18:21 AM 43.0560 -69.9900 52° Northeast 575 662 34,000  Level FlightAware ADS-B
Wed 01:18:56 AM 43.1120 -69.8910 52° Northeast 578 665 34,000  Level FlightAware ADS-B
Wed 01:19:32 AM 43.1720 -69.7860 52° Northeast 580 667 34,000  Level FlightAware ADS-B
Wed 01:20:18 AM 43.2400 -69.6670 52° Northeast 580 667 34,000  Level FlightAware ADS-B
Wed 01:20:48 AM 43.2890 -69.5790 53° Northeast 582 670 34,000  Level FlightAware ADS-B
Wed 01:21:28 AM 43.3460 -69.4800 52° Northeast 582 670 34,000  Level FlightAware ADS-B
Wed 01:22:04 AM 43.3960 -69.3910 52° Northeast 582 670 34,000  Level FlightAware ADS-B
Wed 01:22:45 AM 43.4850 -69.2310 52° Northeast 583 671 34,000  Level FlightAware ADS-B
Wed 01:23:25 AM 43.5410 -69.1320 52° Northeast 583 671 34,000  Level FlightAware ADS-B
Wed 01:24:01 AM 43.5920 -69.0420 52° Northeast 583 671 34,000  Level FlightAware ADS-B
Wed 01:24:37 AM 43.6430 -68.9520 52° Northeast 583 671 34,000  Level FlightAware ADS-B
Wed 01:25:14 AM 43.6950 -68.8600 52° Northeast 583 671 34,000  Level FlightAware ADS-B
Wed 01:25:50 AM 43.7460 -68.7700 52° Northeast 583 671 34,000  Level FlightAware ADS-B
Wed 01:26:26 AM 43.7960 -68.6800 52° Northeast 583 671 34,000  Level FlightAware ADS-B
Wed 01:27:02 AM 43.8470 -68.5900 52° Northeast 583 671 34,000  Level FlightAware ADS-B
Wed 01:27:38 AM 43.9700 -68.3520 54° Northeast 586 674 34,000  Level FlightAware ADS-B
Wed 01:28:19 AM 44.0300 -68.2430 53° Northeast 586 674 34,000  Level FlightAware ADS-B
Wed 01:28:54 AM 44.0950 -68.1210 53° Northeast 585 673 34,000  Level FlightAware ADS-B
Wed 01:29:34 AM 44.1580 -68.0030 53° Northeast 586 674 34,000  Level FlightAware ADS-B
Wed 01:30:06 AM 44.2110 -67.9040 53° Northeast 586 674 34,000  Level FlightAware ADS-B
Wed 01:30:46 AM 44.2770 -67.7800 53° Northeast 586 674 34,000  Level FlightAware ADS-B
Wed 01:31:22 AM 44.3340 -67.6730 53° Northeast 587 676 34,000  Level FlightAware ADS-B
Wed 01:31:54 AM 44.3860 -67.5750 53° Northeast 586 674 34,000  Level FlightAware ADS-B
Wed 01:32:32 AM 44.4480 -67.4580 53° Northeast 587 676 34,000  Level FlightAware ADS-B
Wed 01:33:04 AM 44.4970 -67.3630 54° Northeast 587 676 34,000  Level FlightAware ADS-B
Wed 01:33:37 AM 44.5520 -67.2590 53° Northeast 586 674 34,000  Level FlightAware ADS-B
Wed 01:34:08 AM 44.6020 -67.1630 54° Northeast 586 674 34,000  Level FlightAware ADS-B
Wed 01:34:47 AM 44.6630 -67.0440 54° Northeast 586 674 34,000  Level FlightAware ADS-B
Wed 01:35:23 AM 44.7200 -66.9340 54° Northeast 580 667 34,000  Level FlightAware ADS-B
Wed 01:35:59 AM 44.7780 -66.8220 54° Northeast 583 671 34,000  Level FlightAware ADS-B
Wed 01:36:38 AM 44.8380 -66.7040 54° Northeast 581 669 34,000  Level FlightAware ADS-B
Wed 01:37:09 AM 44.8870 -66.6100 54° Northeast 580 667 34,000  Level FlightAware ADS-B
Wed 01:37:43 AM 44.9400 -66.5050 54° Northeast 579 666 34,000  Level FlightAware ADS-B
Wed 01:38:19 AM 44.9960 -66.3960 54° Northeast 577 664 34,000  Level FlightAware ADS-B
Wed 01:38:54 AM 45.0510 -66.2870 54° Northeast 577 664 34,000  Level FlightAware ADS-B
Wed 01:39:29 AM 45.1040 -66.1820 54° Northeast 577 664 34,000  Level FlightAware ADS-B
Wed 01:40:04 AM 45.1600 -66.0710 54° Northeast 572 658 34,000  Level FlightAware ADS-B
Wed 01:40:39 AM 45.2130 -65.9650 55° Northeast 573 659 34,000  Level FlightAware ADS-B
Wed 01:41:14 AM 45.2670 -65.8560 55° Northeast 573 659 34,000  Level FlightAware ADS-B
Wed 01:41:49 AM 45.3200 -65.7490 55° Northeast 574 661 34,000  Level FlightAware ADS-B
Wed 01:42:25 AM 45.3750 -65.6380 55° Northeast 574 661 34,000  Level FlightAware ADS-B
Wed 01:42:59 AM 45.4280 -65.5300 55° Northeast 575 662 34,000  Level FlightAware ADS-B
Wed 01:43:34 AM 45.4820 -65.4200 55° Northeast 575 662 34,000  Level FlightAware ADS-B
Wed 01:44:10 AM 45.5380 -65.3060 55° Northeast 580 667 34,000  Level FlightAware ADS-B
Wed 01:44:43 AM 45.5900 -65.1980 55° Northeast 581 669 34,000  Level FlightAware ADS-B
Wed 01:45:23 AM 45.6420 -65.0910 55° Northeast 581 669 34,000  Level FlightAware ADS-B
Wed 01:45:59 AM 45.6890 -64.9940 55° Northeast 581 669 34,000  Level FlightAware ADS-B
Wed 01:46:33 AM 45.7540 -64.8570 56° Northeast 581 669 34,000  Level FlightAware ADS-B
Wed 01:47:12 AM 45.8050 -64.7530 55° Northeast 581 669 34,000  Level FlightAware ADS-B
Wed 01:47:48 AM 45.8520 -64.6560 55° Northeast 581 669 34,000  Level FlightAware ADS-B
Wed 01:48:24 AM 45.8990 -64.5590 55° Northeast 581 669 34,000  Level FlightAware ADS-B
Wed 01:49:00 AM 45.9460 -64.4620 55° Northeast 581 669 34,000  Level FlightAware ADS-B
Wed 01:49:37 AM 45.9950 -64.3620 55° Northeast 581 669 34,000  Level FlightAware ADS-B
Wed 01:50:14 AM 46.0430 -64.2630 55° Northeast 581 669 34,000  Level FlightAware ADS-B
Wed 01:50:50 AM 46.0910 -64.1660 54° Northeast 581 669 34,000  Level FlightAware ADS-B
Wed 01:51:27 AM 46.1390 -64.0660 55° Northeast 581 669 34,000  Level FlightAware ADS-B
Wed 01:52:03 AM 46.1860 -63.9680 55° Northeast 581 669 34,000  Level FlightAware ADS-B
Wed 01:52:39 AM 46.2330 -63.8710 55° Northeast 581 669 34,000  Level FlightAware ADS-B
Wed 01:53:15 AM 46.2810 -63.7740 54° Northeast 581 669 34,000  Level FlightAware ADS-B
Wed 01:53:51 AM 46.3280 -63.6760 55° Northeast 581 669 34,000  Level FlightAware ADS-B
Wed 01:54:28 AM 46.3760 -63.5760 55° Northeast 581 669 34,000  Level FlightAware ADS-B
Wed 01:55:04 AM 46.4230 -63.4780 55° Northeast 581 669 34,000  Level FlightAware ADS-B
Wed 01:55:40 AM 46.4710 -63.3800 55° Northeast 581 669 34,000  Level FlightAware ADS-B
Wed 01:56:14 AM 46.5150 -63.2880 55° Northeast 581 669 34,000  Level FlightAware ADS-B
Wed 01:56:43 AM 46.6530 -62.9250 61° Northeast 568 654 34,000  Level FlightAware ADS-B
Wed 01:57:22 AM 46.7020 -62.8200 56° Northeast 568 654 34,000  Level FlightAware ADS-B
Wed 01:57:55 AM 46.7580 -62.6910 58° Northeast 570 656 34,000  Level FlightAware ADS-B
Wed 01:58:39 AM 46.8140 -62.5660 57° Northeast 571 657 34,000  Level FlightAware ADS-B
Wed 01:59:15 AM 46.8580 -62.4670 57° Northeast 571 657 34,000  Level FlightAware ADS-B
Wed 01:59:47 AM 46.9120 -62.3380 58° Northeast 572 658 34,000  Level FlightAware ADS-B
Wed 02:00:35 AM 46.9770 -62.1850 58° Northeast 571 657 34,000  Level FlightAware ADS-B
Wed 02:01:05 AM 47.0260 -62.0700 58° Northeast 573 659 34,000  Level FlightAware ADS-B
Wed 02:01:41 AM 47.0720 -61.9650 57° Northeast 573 659 34,000  Level FlightAware ADS-B
Wed 02:02:15 AM 47.1260 -61.8370 58° Northeast 573 659 34,000  Level FlightAware ADS-B
Wed 02:02:59 AM 47.1860 -61.6960 58° Northeast 573 659 34,000  Level FlightAware ADS-B
Wed 02:03:33 AM 47.2340 -61.5850 57° Northeast 574 661 34,000  Level FlightAware ADS-B
Wed 02:04:23 AM 47.3070 -61.4130 58° Northeast 577 664 34,000  Level FlightAware ADS-B
Wed 02:04:59 AM 47.3560 -61.2970 58° Northeast 577 664 34,000  Level FlightAware ADS-B
Wed 02:05:31 AM 47.4010 -61.1900 58° Northeast 577 664 34,000  Level FlightAware ADS-B
Wed 02:06:07 AM 47.4510 -61.0710 58° Northeast 576 663 34,000  Level FlightAware ADS-B
Wed 02:06:42 AM 47.4950 -60.9670 58° Northeast 577 664 34,000  Level FlightAware ADS-B
Wed 02:07:18 AM 47.5380 -60.8640 58° Northeast 577 664 34,000  Level FlightAware ADS-B
Wed 02:07:55 AM 47.5830 -60.7580 58° Northeast 577 664 34,000  Level FlightAware ADS-B
Wed 02:08:31 AM 47.6260 -60.6560 58° Northeast 577 664 34,000  Level FlightAware ADS-B
Wed 02:09:07 AM 47.6690 -60.5530 58° Northeast 577 664 34,000  Level FlightAware ADS-B
Wed 02:09:44 AM 47.7140 -60.4470 58° Northeast 577 664 34,000  Level FlightAware ADS-B
Wed 02:10:20 AM 47.7570 -60.3440 58° Northeast 577 664 34,000  Level FlightAware ADS-B
Wed 02:10:56 AM 47.8000 -60.2410 58° Northeast 577 664 34,000  Level FlightAware ADS-B
Wed 02:11:32 AM 47.8440 -60.1380 57° Northeast 577 664 34,000  Level FlightAware ADS-B
Wed 02:12:10 AM 47.8890 -60.0290 58° Northeast 577 664 34,000  Level FlightAware ADS-B
Wed 02:12:47 AM 47.9340 -59.9220 58° Northeast 577 664 34,000  Level FlightAware ADS-B
Wed 02:13:18 AM 48.0460 -59.6070 62° Northeast 582 670 34,000  Level FlightAware ADS-B
Wed 02:13:58 AM 48.1010 -59.4690 59° Northeast 581 669 34,000  Level FlightAware ADS-B
Wed 02:14:33 AM 48.1500 -59.3430 60° Northeast 579 666 34,000  Level FlightAware ADS-B
Wed 02:15:03 AM 48.1910 -59.2380 60° Northeast 579 666 34,000  Level FlightAware ADS-B
Wed 02:15:43 AM 48.2420 -59.1070 60° Northeast 580 667 34,000  Level FlightAware ADS-B
Wed 02:16:23 AM 48.2980 -58.9620 60° Northeast 580 667 34,000 160 Level FlightAware ADS-B
Wed 02:16:58 AM 48.3440 -58.8430 60° Northeast 582 670 34,200 600 Climbing FlightAware ADS-B
Wed 02:17:33 AM 48.3900 -58.7220 60° Northeast 582 670 34,700 640 Climbing FlightAware ADS-B
Wed 02:18:13 AM 48.4470 -58.5740 60° Northeast 584 672 35,000 240 Climbing FlightAware ADS-B
Wed 02:18:48 AM 48.4930 -58.4530 60° Northeast 586 674 35,000  Level FlightAware ADS-B
Wed 02:19:28 AM 48.5470 -58.3090 60° Northeast 588 677 35,000  Level FlightAware ADS-B
Wed 02:19:58 AM 48.5850 -58.2080 60° Northeast 590 679 35,000  Level FlightAware ADS-B
Wed 02:20:33 AM 48.6330 -58.0790 61° Northeast 593 682 35,000  Level FlightAware ADS-B
Wed 02:21:08 AM 48.6810 -57.9520 60° Northeast 594 684 35,000  Level FlightAware ADS-B
Wed 02:21:48 AM 48.7350 -57.8030 61° Northeast 597 687 35,000  Level FlightAware ADS-B
Wed 02:22:18 AM 48.7720 -57.6920 63° Northeast 598 688 35,000  Level FlightAware ADS-B
Wed 02:22:58 AM 48.8220 -57.5410 63° Northeast 600 690 35,000  Level FlightAware ADS-B
Wed 02:23:28 AM 48.8600 -57.4280 63° Northeast 600 690 35,000  Level FlightAware ADS-B
Wed 02:24:03 AM 48.9030 -57.2980 63° Northeast 600 690 35,000  Level FlightAware ADS-B
Wed 02:24:38 AM 48.9470 -57.1670 63° Northeast 600 690 35,000  Level FlightAware ADS-B
Wed 02:25:18 AM 48.9980 -57.0140 63° Northeast 600 690 35,000  Level FlightAware ADS-B
Wed 02:25:49 AM 49.0340 -56.9030 64° Northeast 601 692 35,000  Level FlightAware ADS-B
Wed 02:26:23 AM 49.0780 -56.7690 63° Northeast 602 693 35,000  Level FlightAware ADS-B
Wed 02:26:58 AM 49.1220 -56.6350 63° Northeast 603 694 35,000  Level FlightAware ADS-B
Wed 02:27:38 AM 49.1700 -56.4840 64° Northeast 604 695 35,000  Level FlightAware ADS-B
Wed 02:28:08 AM 49.2080 -56.3660 64° Northeast 606 697 35,000  Level FlightAware ADS-B
Wed 02:28:43 AM 49.2500 -56.2350 64° Northeast 607 699 35,000  Level FlightAware ADS-B
Wed 02:29:23 AM 49.3000 -56.0770 64° Northeast 609 701 35,000  Level FlightAware ADS-B
Wed 02:29:53 AM 49.3370 -55.9610 64° Northeast 610 702 35,000  Level FlightAware ADS-B
Wed 02:30:28 AM 49.3800 -55.8260 64° Northeast 610 702 35,000  Level FlightAware ADS-B
Wed 02:31:08 AM 49.4290 -55.6690 64° Northeast 610 702 35,000  Level FlightAware ADS-B
Wed 02:31:38 AM 49.4640 -55.5570 64° Northeast 609 701 35,000  Level FlightAware ADS-B
Wed 02:32:13 AM 49.5080 -55.4150 64° Northeast 608 700 35,000  Level FlightAware ADS-B
Wed 02:32:53 AM 49.5560 -55.2580 65° Northeast 609 701 35,000  Level FlightAware ADS-B
Wed 02:33:23 AM 49.5920 -55.1400 65° Northeast 609 701 35,000  Level FlightAware ADS-B
Wed 02:33:58 AM 49.6340 -55.0030 65° Northeast 610 702 35,000  Level FlightAware ADS-B
Wed 02:34:33 AM 49.6760 -54.8660 65° Northeast 612 704 35,000  Level FlightAware ADS-B
Wed 02:35:13 AM 49.7250 -54.7070 64° Northeast 612 704 35,000  Level FlightAware ADS-B
Wed 02:35:43 AM 49.7600 -54.5870 66° East 612 704 35,000  Level FlightAware ADS-B
Wed 02:36:00 AM 49.7167 -55.0000 66° East 611 703 35,000  Level ETMS Enhanced Traffic Management System
Wed 02:36:21 AM 49.8010 -54.4520 65° Northeast 612 704 35,000  Level FlightAware ADS-B
Wed 02:36:53 AM 49.8430 -54.3100 65° Northeast 611 703 35,000  Level FlightAware ADS-B
Wed 02:37:33 AM 49.8900 -54.1500 65° Northeast 613 705 35,000  Level FlightAware ADS-B
Wed 02:38:13 AM 49.9360 -53.9890 66° East 612 704 35,000  Level FlightAware ADS-B
Wed 02:38:48 AM 49.9760 -53.8530 65° Northeast 611 703 35,000  Level FlightAware ADS-B
Wed 02:39:28 AM 50.0220 -53.6920 66° East 613 705 35,000  Level FlightAware ADS-B
Wed 02:40:03 AM 50.0630 -53.5490 66° East 613 705 35,000  Level FlightAware ADS-B
Wed 02:40:38 AM 50.1020 -53.4090 66° East 614 707 35,000  Level FlightAware ADS-B
Wed 02:41:13 AM 50.1410 -53.2700 66° East 615 708 35,000  Level FlightAware ADS-B
Wed 02:41:48 AM 50.1820 -53.1230 66° East 615 708 35,000  Level FlightAware ADS-B
Wed 02:42:25 AM 50.2210 -52.9820 67° East 616 709 35,000  Level FlightAware ADS-B
Wed 02:42:58 AM 50.2610 -52.8380 66° East 617 710 35,000  Level FlightAware ADS-B
Wed 02:43:33 AM 50.2990 -52.7020 66° East 617 710 35,000  Level FlightAware ADS-B
Wed 02:44:18 AM 50.3480 -52.5260 66° East 617 710 35,000  Level FlightAware ADS-B
Wed 02:44:53 AM 50.3840 -52.3960 66° East 617 710 35,000  Level FlightAware ADS-B
Wed 02:45:41 AM 50.4360 -52.2020 67° East 618 711 35,000  Level FlightAware ADS-B
Wed 02:46:17 AM 50.4700 -52.0750 67° East 618 711 35,000  Level FlightAware ADS-B
Wed 02:46:49 AM 50.5180 -51.8930 67° East 35,000  Level FlightAware ADS-B
Wed 02:47:46 AM 50.5667 -51.6000 67° East 620 713 35,000  Level Moncton Center
Wed 02:48:46 AM 50.6333 -51.3500 67° East 610 702 35,000  Level Moncton Center
Wed 02:49:46 AM 50.6833 -51.0833 73° East 610 702 35,000  Level Moncton Center
Wed 02:51:46 AM 50.8167 -50.6000 66° East 610 702 35,000  Level Moncton Center
Wed 02:52:46 AM 50.8833 -50.3333 68° East 610 702 35,000  Level Moncton Center
Wed 02:55:28 AM 51.0000 -49.6333 75° East 630 725 35,000  Level Moncton Center
Wed 02:57:00 AM 51.0000 -50.0000 86° East 611 703 35,000  Level ETMS Enhanced Traffic Management System
Wed 02:58:15 AM 51.0333 -48.8500 86° East 640 736 35,000  Level Gander Center
Wed 03:00:00 AM 51.0467 -48.4342 87° East  Level FlightAware Approximate
Wed 03:07:00 AM 51.0857 -46.7688 87° East  Level FlightAware Approximate
Wed 03:08:00 AM 51.0893 -46.5307 89° East  Level FlightAware Approximate
Wed 03:09:00 AM 51.0924 -46.2926 89° East  Level FlightAware Approximate
Wed 03:10:00 AM 51.0951 -46.0544 89° East  Level FlightAware Approximate
Wed 03:11:00 AM 51.0973 -45.8162 89° East  Level FlightAware Approximate
Wed 03:12:00 AM 51.0989 -45.5780 89° East  Level FlightAware Approximate
Wed 03:13:00 AM 51.1002 -45.3398 89° East  Level FlightAware Approximate
Wed 03:14:00 AM 51.1009 -45.1016 90° East  Level FlightAware Approximate
Wed 03:15:00 AM 51.1011 -44.8633 90° East  Level FlightAware Approximate
Wed 03:16:00 AM 51.1009 -44.6251 90° East  Level FlightAware Approximate
Wed 03:17:00 AM 51.1001 -44.3868 90° East  Level FlightAware Approximate
Wed 03:18:00 AM 51.0989 -44.1486 90° East  Level FlightAware Approximate
Wed 03:19:00 AM 51.0972 -43.9104 91° East  Level FlightAware Approximate
Wed 03:20:00 AM 51.0951 -43.6722 91° East  Level FlightAware Approximate
Wed 03:21:00 AM 51.0924 -43.4340 91° East  Level FlightAware Approximate
Wed 03:22:00 AM 51.0892 -43.1959 91° East  Level FlightAware Approximate
Wed 03:23:00 AM 51.0856 -42.9578 91° East  Level FlightAware Approximate
Wed 03:24:00 AM 51.0815 -42.7197 91° East  Level FlightAware Approximate
Wed 03:25:00 AM 51.0769 -42.4817 92° East  Level FlightAware Approximate
Wed 03:26:00 AM 51.0718 -42.2438 92° East  Level FlightAware Approximate
Wed 03:27:00 AM 51.0662 -42.0058 92° East  Level FlightAware Approximate
Wed 03:28:00 AM 51.0602 -41.7680 92° East  Level FlightAware Approximate
Wed 03:29:00 AM 51.0536 -41.5302 92° East  Level FlightAware Approximate
Wed 03:30:00 AM 51.0466 -41.2925 93° East  Level FlightAware Approximate
Wed 03:31:00 AM 51.0391 -41.0548 93° East  Level FlightAware Approximate
Wed 03:32:00 AM 51.0312 -40.8173 93° East  Level FlightAware Approximate
Wed 03:32:46 AM 51.0000 -40.0000 77° East 581 669 35,000  Level ETMS Enhanced Traffic Management System
Wed 03:33:00 AM 51.0227 -40.5798 93° East  Level FlightAware Approximate
Wed 03:34:00 AM 51.0137 -40.3424 93° East  Level FlightAware Approximate
Wed 03:35:00 AM 51.0043 -40.1051 94° East  Level FlightAware Approximate
Wed 03:36:00 AM 51.0187 -39.8710 77° East  Level FlightAware Approximate
Wed 03:37:00 AM 51.0519 -39.6390 77° East  Level FlightAware Approximate
Wed 03:38:00 AM 51.2739 -37.9872 79° East 581 669 35,000  Level FlightAware Transoceanic
Wed 03:39:00 AM 51.3057 -37.7340 79° East 581 669 35,000  Level FlightAware Transoceanic
Wed 03:40:00 AM 51.3370 -37.4804 79° East 581 669 35,000  Level FlightAware Transoceanic
Wed 03:41:00 AM 51.3677 -37.2265 79° East 581 669 35,000  Level FlightAware Transoceanic
Wed 03:42:00 AM 51.3978 -36.9722 79° East 581 669 35,000  Level FlightAware Transoceanic
Wed 03:43:00 AM 51.4274 -36.7176 80° East 581 669 35,000  Level FlightAware Transoceanic
Wed 03:44:00 AM 51.4565 -36.4627 80° East 581 669 35,000  Level FlightAware Transoceanic
Wed 03:45:00 AM 51.4850 -36.2074 80° East 581 669 35,000  Level FlightAware Transoceanic
Wed 03:46:00 AM 51.5129 -35.9519 80° East 581 669 35,000  Level FlightAware Transoceanic
Wed 03:47:00 AM 51.5403 -35.6960 80° East 581 669 35,000  Level FlightAware Transoceanic
Wed 03:48:00 AM 51.5672 -35.4398 81° East 581 669 35,000  Level FlightAware Transoceanic
Wed 03:49:00 AM 51.5934 -35.1833 81° East 581 669 35,000  Level FlightAware Transoceanic
Wed 03:50:00 AM 51.6191 -34.9266 81° East 581 669 35,000  Level FlightAware Transoceanic
Wed 03:51:00 AM 51.6443 -34.6695 81° East 581 669 35,000  Level FlightAware Transoceanic
Wed 03:52:00 AM 51.6689 -34.4122 81° East 581 669 35,000  Level FlightAware Transoceanic
Wed 03:53:00 AM 51.6929 -34.1545 82° East 581 669 35,000  Level FlightAware Transoceanic
Wed 03:54:00 AM 51.7164 -33.8967 82° East 581 669 35,000  Level FlightAware Transoceanic
Wed 03:55:00 AM 51.7393 -33.6385 82° East 581 669 35,000  Level FlightAware Transoceanic
Wed 03:56:00 AM 51.7616 -33.3801 82° East 581 669 35,000  Level FlightAware Transoceanic
Wed 03:57:00 AM 51.7834 -33.1214 82° East 581 669 35,000  Level FlightAware Transoceanic
Wed 03:58:00 AM 51.8046 -32.8625 83° East 581 669 35,000  Level FlightAware Transoceanic
Wed 03:59:00 AM 51.8252 -32.6034 83° East 581 669 35,000  Level FlightAware Transoceanic
Wed 04:00:00 AM 51.8453 -32.3440 83° East 581 669 35,000  Level FlightAware Transoceanic
Wed 04:01:00 AM 51.8648 -32.0844 83° East 581 669 35,000  Level FlightAware Transoceanic
Wed 04:02:00 AM 51.8837 -31.8245 83° East 581 669 35,000  Level FlightAware Transoceanic
Wed 04:03:00 AM 51.9020 -31.5645 84° East 581 669 35,000  Level FlightAware Transoceanic
Wed 04:04:00 AM 51.9198 -31.3042 84° East 581 669 35,000  Level FlightAware Transoceanic
Wed 04:05:00 AM 51.9370 -31.0438 84° East 581 669 35,000  Level FlightAware Transoceanic
Wed 04:06:00 AM 51.9536 -30.7831 84° East 581 669 35,000  Level FlightAware Transoceanic
Wed 04:07:00 AM 51.9696 -30.5222 84° East 581 669 35,000  Level FlightAware Transoceanic
Wed 04:08:00 AM 51.9851 -30.2612 85° East 581 669 35,000  Level FlightAware Transoceanic
Wed 04:09:00 AM 51.9989 -30.0193 85° East  Level FlightAware Approximate
Wed 04:10:00 AM 52.0122 -29.7772 85° East  Level FlightAware Approximate
Wed 04:11:00 AM 52.0285 -29.8010 77° East  Level FlightAware Approximate
Wed 04:12:00 AM 52.0619 -29.5639 77° East  Level FlightAware Approximate
Wed 04:12:00 AM 52.0000 -30.0000 77° East 554 638 35,000  Level ETMS Enhanced Traffic Management System
Wed 04:13:00 AM 52.0948 -29.3265 77° East  Level FlightAware Approximate
Wed 04:14:00 AM 52.1273 -29.0887 77° East  Level FlightAware Approximate
Wed 04:15:00 AM 52.1591 -28.8525 78° East  Level FlightAware Approximate
Wed 04:16:00 AM 52.1903 -28.6160 78° East  Level FlightAware Approximate
Wed 04:17:00 AM 52.2211 -28.3792 78° East  Level FlightAware Approximate
Wed 04:18:00 AM 52.2980 -27.7925 78° East 554 638 35,000  Level FlightAware Transoceanic
Wed 04:19:00 AM 52.3285 -27.5454 79° East 554 638 35,000  Level FlightAware Transoceanic
Wed 04:20:00 AM 52.3586 -27.2980 79° East 554 638 35,000  Level FlightAware Transoceanic
Wed 04:21:00 AM 52.3881 -27.0503 79° East 554 638 35,000  Level FlightAware Transoceanic
Wed 04:22:00 AM 52.4171 -26.8022 79° East 554 638 35,000  Level FlightAware Transoceanic
Wed 04:23:00 AM 52.4455 -26.5538 79° East 554 638 35,000  Level FlightAware Transoceanic
Wed 04:24:00 AM 52.4735 -26.3051 80° East 554 638 35,000  Level FlightAware Transoceanic
Wed 04:25:00 AM 52.5009 -26.0561 80° East 554 638 35,000  Level FlightAware Transoceanic
Wed 04:26:00 AM 52.5279 -25.8068 80° East 554 638 35,000  Level FlightAware Transoceanic
Wed 04:27:00 AM 52.5542 -25.5571 80° East 554 638 35,000  Level FlightAware Transoceanic
Wed 04:28:00 AM 52.5801 -25.3072 80° East 554 638 35,000  Level FlightAware Transoceanic
Wed 04:29:00 AM 52.6054 -25.0570 81° East 554 638 35,000  Level FlightAware Transoceanic
Wed 04:30:00 AM 52.6302 -24.8065 81° East 554 638 35,000  Level FlightAware Transoceanic
Wed 04:31:00 AM 52.6545 -24.5557 81° East 554 638 35,000  Level FlightAware Transoceanic
Wed 04:32:00 AM 52.6783 -24.3047 81° East 554 638 35,000  Level FlightAware Transoceanic
Wed 04:33:00 AM 52.7015 -24.0533 81° East 554 638 35,000  Level FlightAware Transoceanic
Wed 04:34:00 AM 52.7242 -23.8017 82° East 554 638 35,000  Level FlightAware Transoceanic
Wed 04:35:00 AM 52.7463 -23.5499 82° East 554 638 35,000  Level FlightAware Transoceanic
Wed 04:36:00 AM 52.7679 -23.2978 82° East 554 638 35,000  Level FlightAware Transoceanic
Wed 04:37:00 AM 52.7890 -23.0454 82° East 554 638 35,000  Level FlightAware Transoceanic
Wed 04:38:00 AM 52.8096 -22.7928 82° East 554 638 35,000  Level FlightAware Transoceanic
Wed 04:39:00 AM 52.8296 -22.5400 83° East 554 638 35,000  Level FlightAware Transoceanic
Wed 04:40:00 AM 52.8491 -22.2869 83° East 554 638 35,000  Level FlightAware Transoceanic
Wed 04:41:00 AM 52.8680 -22.0336 83° East 554 638 35,000  Level FlightAware Transoceanic
Wed 04:42:00 AM 52.8864 -21.7801 83° East 554 638 35,000  Level FlightAware Transoceanic
Wed 04:43:00 AM 52.9043 -21.5264 83° East 554 638 35,000  Level FlightAware Transoceanic
Wed 04:44:00 AM 52.9216 -21.2725 84° East 554 638 35,000  Level FlightAware Transoceanic
Wed 04:45:00 AM 52.9383 -21.0184 84° East 554 638 35,000  Level FlightAware Transoceanic
Wed 04:46:00 AM 52.9546 -20.7640 84° East 554 638 35,000  Level FlightAware Transoceanic
Wed 04:47:00 AM 52.9703 -20.5096 84° East 554 638 35,000  Level FlightAware Transoceanic
Wed 04:48:00 AM 52.9854 -20.2549 84° East 554 638 35,000  Level FlightAware Transoceanic
Wed 04:49:00 AM 52.9995 -20.0095 84° East  Level FlightAware Approximate
Wed 04:50:00 AM 53.0129 -19.7640 85° East  Level FlightAware Approximate
Wed 04:51:00 AM 52.9993 -19.7726 90° East  Level FlightAware Approximate
Wed 04:52:00 AM 52.9980 -19.5261 90° East  Level FlightAware Approximate
Wed 04:53:00 AM 52.9962 -19.2796 91° East  Level FlightAware Approximate
Wed 04:54:00 AM 52.9938 -19.0331 91° East  Level FlightAware Approximate
Wed 04:55:00 AM 52.9910 -18.7867 91° East  Level FlightAware Approximate
Wed 04:56:00 AM 52.9877 -18.5403 91° East  Level FlightAware Approximate
Wed 04:57:00 AM 52.9838 -18.2940 91° East  Level FlightAware Approximate
Wed 04:58:00 AM 52.9795 -18.0476 92° East  Level FlightAware Approximate
Wed 04:59:00 AM 52.9746 -17.8014 92° East  Level FlightAware Approximate
Wed 05:00:00 AM 52.9693 -17.5552 92° East  Level FlightAware Approximate
Wed 05:01:00 AM 52.9634 -17.3091 92° East  Level FlightAware Approximate
Wed 05:02:00 AM 52.9570 -17.0630 92° East  Level FlightAware Approximate
Wed 05:03:00 AM 52.9501 -16.8170 93° East  Level FlightAware Approximate
Wed 05:04:00 AM 52.9427 -16.5711 93° East  Level FlightAware Approximate
Wed 05:05:00 AM 52.9348 -16.3253 93° East  Level FlightAware Approximate
Wed 05:06:00 AM 52.9264 -16.0796 93° East  Level FlightAware Approximate
Wed 05:07:00 AM 52.9174 -15.8340 93° East  Level FlightAware Approximate
Wed 05:08:00 AM 52.9080 -15.5884 94° East  Level FlightAware Approximate
Wed 05:09:00 AM 52.8981 -15.3430 94° East  Level FlightAware Approximate
Wed 05:10:00 AM 52.8876 -15.0977 94° East  Level FlightAware Approximate
Wed 05:11:00 AM 52.8772 -14.8525 94° East  Level FlightAware Approximate
Wed 05:12:00 AM 52.8667 -14.6073 94° East  Level FlightAware Approximate
Wed 05:13:00 AM 52.8557 -14.3618 94° East  Level FlightAware Approximate
Wed 05:14:00 AM 52.8441 -14.1165 94° East  Level FlightAware Approximate
Wed 05:15:00 AM 52.8320 -13.8713 95° East  Level FlightAware Approximate
Wed 05:16:00 AM 52.8195 -13.6262 95° East  Level FlightAware Approximate
Wed 05:17:00 AM 52.8064 -13.3812 95° East  Level FlightAware Approximate
Wed 05:17:10 AM 52.8750 -12.8910 95° East 556 640 35,000  Level FlightAware ADS-B
Wed 05:17:41 AM 52.8640 -12.7640 98° East 558 642 35,000  Level FlightAware ADS-B
Wed 05:18:22 AM 52.8500 -12.5840 97° East 631 726 35,000  Level FlightAware ADS-B
Wed 05:19:05 AM 52.8340 -12.3950 98° East 556 640 35,000  Level FlightAware ADS-B
Wed 05:19:40 AM 52.8220 -12.2470 98° East 556 640 35,000 343 Level FlightAware ADS-B
Wed 05:20:15 AM 52.8100 -12.0970 97° East 557 641 35,400 1,050 Climbing FlightAware ADS-B
Wed 05:21:00 AM 52.7950 -11.9090 97° East 552 635 36,400 1,200 Climbing FlightAware ADS-B
Wed 05:21:35 AM 52.7840 -11.7620 97° East 550 633 37,000 514 Climbing FlightAware ADS-B
Wed 05:22:10 AM 52.7720 -11.6190 98° East 549 632 37,000  Level FlightAware ADS-B
Wed 05:22:40 AM 52.7620 -11.4940 97° East 549 632 37,000  Level FlightAware ADS-B
Wed 05:23:25 AM 52.7460 -11.3090 98° East 549 632 37,000  Level FlightAware ADS-B
Wed 05:24:00 AM 52.7320 -11.1600 99° East 549 632 37,000  Level FlightAware ADS-B
Wed 05:24:31 AM 52.7220 -11.0540 99° East 548 631 37,000  Level FlightAware ADS-B
Wed 05:25:11 AM 52.7050 -10.8700 99° East 547 629 37,000  Level FlightAware ADS-B
Wed 05:25:46 AM 52.6910 -10.7260 99° East 546 628 37,000  Level FlightAware ADS-B
Wed 05:26:21 AM 52.6760 -10.5800 100° East 547 629 37,000  Level FlightAware ADS-B
Wed 05:26:56 AM 52.6620 -10.4360 99° East 547 629 37,000  Level FlightAware ADS-B
Wed 05:27:31 AM 52.6470 -10.2990 100° East 547 629 37,000  Level FlightAware ADS-B
Wed 05:28:04 AM 52.6320 -10.1560 100° East 548 631 37,000  Level FlightAware ADS-B
Wed 05:28:38 AM 52.6180 -10.0220 100° East 547 629 37,000  Level FlightAware ADS-B
Wed 05:29:24 AM 52.5980 -9.8310 100° East 550 633 37,000  Level FlightAware ADS-B
Wed 05:30:04 AM 52.5800 -9.6660 100° East 549 632 37,000  Level FlightAware ADS-B
Wed 05:30:38 AM 52.5640 -9.5210 100° East 548 631 37,000  Level FlightAware ADS-B
Wed 05:31:18 AM 52.5480 -9.3680 100° East 548 631 37,000  Level FlightAware ADS-B
Wed 05:31:51 AM 52.5310 -9.2220 101° East 548 631 37,000  Level FlightAware ADS-B
Wed 05:32:21 AM 52.5180 -9.1030 100° East 548 631 37,000  Level FlightAware ADS-B
Wed 05:33:01 AM 52.5010 -8.9530 100° East 547 629 37,000  Level FlightAware ADS-B
Wed 05:33:41 AM 52.4810 -8.7810 101° East 546 628 37,000  Level FlightAware ADS-B
Wed 05:34:16 AM 52.4640 -8.6380 101° East 546 628 37,000 -87 Level FlightAware ADS-B
Wed 05:34:50 AM 52.4520 -8.4895 101° East 492 566 36,900  Descending FlightAware UK
Wed 05:34:51 AM 52.4480 -8.5000 101° East 545 627 37,000 167 Climbing FlightAware ADS-B
Wed 05:35:26 AM 52.4320 -8.3630 101° East 545 627 37,000  Level FlightAware ADS-B
Wed 05:36:01 AM 52.4150 -8.2170 101° East 545 627 37,000  Level FlightAware ADS-B
Wed 05:36:36 AM 52.3970 -8.0720 101° East 545 627 37,000  Level FlightAware ADS-B
Wed 05:37:11 AM 52.3800 -7.9340 101° East 545 627 37,000  Level FlightAware ADS-B
Wed 05:37:46 AM 52.3620 -7.7870 101° East 545 627 37,000 -87 Level FlightAware ADS-B
Wed 05:38:20 AM 52.3510 -7.6440 101° East 490 564 36,900  Descending FlightAware UK
Wed 05:38:21 AM 52.3460 -7.6560 101° East 545 627 37,000 167 Climbing FlightAware ADS-B
Wed 05:38:56 AM 52.3280 -7.5130 102° East 545 627 37,000  Level FlightAware ADS-B
Wed 05:39:32 AM 52.3100 -7.3690 102° East 545 627 37,000  Level FlightAware ADS-B
Wed 05:40:06 AM 52.2920 -7.2300 102° East 546 628 37,000  Level FlightAware ADS-B
Wed 05:40:41 AM 52.2730 -7.0840 102° East 546 628 37,000  Level FlightAware ADS-B
Wed 05:41:16 AM 52.2560 -6.9490 102° East 546 628 37,000 -86 Level FlightAware ADS-B
Wed 05:41:51 AM 52.2430 -6.8011 102° East 490 564 36,900  Descending FlightAware UK
Wed 05:41:51 AM 52.2370 -6.8070 102° East 546 628 37,000  Climbing FlightAware ADS-B
Wed 05:42:21 AM 52.2270 -6.6810 102° East 492 566 36,900  Descending FlightAware UK
Wed 05:42:26 AM 52.2190 -6.6710 102° East 547 629 37,000 150 Climbing FlightAware ADS-B
Wed 05:43:01 AM 52.1990 -6.5240 102° East 546 628 37,000  Level FlightAware ADS-B
Wed 05:43:37 AM 52.1800 -6.3840 102° East 547 629 37,000  Level FlightAware ADS-B
Wed 05:44:11 AM 52.1620 -6.2470 102° East 547 629 37,000  Level FlightAware ADS-B
Wed 05:44:49 AM 52.1400 -6.0860 102° East 546 628 37,000 -86 Level FlightAware ADS-B
Wed 05:45:21 AM 52.1285 -5.9589 102° East 496 571 36,900  Descending FlightAware UK
Wed 05:45:23 AM 52.1210 -5.9480 102° East 546 628 37,000 162 Climbing FlightAware ADS-B
Wed 05:45:58 AM 52.1010 -5.8050 103° East 545 627 37,000  Level FlightAware ADS-B
Wed 05:46:34 AM 52.0800 -5.6610 103° East 543 625 37,000  Level FlightAware ADS-B
Wed 05:47:06 AM 52.0620 -5.5340 103° East 542 624 37,000  Level FlightAware ADS-B
Wed 05:47:42 AM 52.0420 -5.3930 103° East 543 625 37,000  Level FlightAware ADS-B
Wed 05:48:19 AM 52.0210 -5.2500 103° East 542 624 37,000  Level FlightAware ADS-B
Wed 05:48:51 AM 52.0030 -5.1240 103° East 542 624 37,000  Level FlightAware ADS-B
Wed 05:49:27 AM 51.9820 -4.9800 103° East 542 624 37,000  Level FlightAware ADS-B
Wed 05:50:03 AM 51.9650 -4.8360 101° East 542 624 37,000  Level FlightAware ADS-B
Wed 05:50:35 AM 51.9510 -4.7060 100° East 541 623 37,000  Level FlightAware ADS-B
Wed 05:51:12 AM 51.9350 -4.5620 100° East 540 621 37,000 -86 Level FlightAware ADS-B
Wed 05:51:45 AM 51.9251 -4.4305 100° East 496 571 36,900  Descending FlightAware UK
Wed 05:51:49 AM 51.9180 -4.4120 100° East 539 620 37,000 154 Climbing FlightAware ADS-B
Wed 05:52:24 AM 51.9010 -4.2750 101° East 538 619 37,000  Level FlightAware ADS-B
Wed 05:52:58 AM 51.8850 -4.1390 101° East 538 619 37,000 -87 Level FlightAware ADS-B
Wed 05:53:33 AM 51.8726 -4.0032 101° East 494 568 36,900  Descending FlightAware UK
Wed 05:53:34 AM 51.8680 -4.0020 101° East 537 618 37,000 162 Climbing FlightAware ADS-B
Wed 05:54:10 AM 51.8500 -3.8550 101° East 535 616 37,000  Level FlightAware ADS-B
Wed 05:54:29 AM 51.8406 -3.7791 101° East 535 616 37,000  Level FlightAware ADS-B
Wed 05:55:04 AM 51.8240 -3.6442 101° East 534 615 37,000  Level FlightAware ADS-B
Wed 05:55:37 AM 51.8080 -3.5153 101° East 533 613 37,000  Level FlightAware ADS-B
Wed 05:56:11 AM 51.7914 -3.3819 101° East 532 612 37,000  Level FlightAware ADS-B
Wed 05:56:46 AM 51.7742 -3.2468 102° East 532 612 37,000  Level FlightAware ADS-B
Wed 05:57:20 AM 51.7574 -3.1157 102° East 532 612 37,000  Level FlightAware ADS-B
Wed 05:57:51 AM 51.7420 -2.9968 102° East 531 611 37,000  Level FlightAware ADS-B
Wed 05:58:21 AM 51.7270 -2.8802 102° East 531 611 37,000  Level FlightAware ADS-B
Wed 05:58:47 AM 51.7139 -2.7773 102° East 530 610 37,000  Level FlightAware ADS-B
Wed 05:59:23 AM 51.6994 -2.6386 100° East 529 609 37,000  Level FlightAware ADS-B
Wed 05:59:54 AM 51.6886 -2.5184 98° East 529 609 37,000  Level FlightAware ADS-B
Wed 06:00:24 AM 51.6783 -2.4011 98° East 529 609 37,000  Level FlightAware ADS-B
Wed 06:01:02 AM 51.6650 -2.2520 98° East 529 609 37,000  Level FlightAware ADS-B
Wed 06:01:10 AM 51.6621 -2.2223 99° East 529 609 37,000  Level FlightAware ADS-B
Wed 06:01:42 AM 51.6508 -2.0984 98° East 530 610 37,000  Level FlightAware ADS-B
Wed 06:02:12 AM 51.6396 -1.9792 99° East 531 611 37,000  Level FlightAware ADS-B
Wed 06:02:42 AM 51.6283 -1.8617 99° East 531 611 37,000  Level FlightAware ADS-B
Wed 06:03:16 AM 51.6154 -1.7306 99° East 532 612 37,000  Level FlightAware ADS-B
Wed 06:03:47 AM 51.6035 -1.6101 99° East 533 613 37,000  Level FlightAware ADS-B
Wed 06:04:24 AM 51.5893 -1.4662 99° East 534 615 37,000  Level FlightAware ADS-B
Wed 06:04:56 AM 51.5762 -1.3381 99° East 535 616 37,000  Level FlightAware ADS-B
Wed 06:05:28 AM 51.5637 -1.2161 99° East 536 617 37,000  Level FlightAware ADS-B
Wed 06:06:01 AM 51.5501 -1.0839 99° East 536 617 37,000  Level FlightAware ADS-B
Wed 06:06:32 AM 51.5376 -0.9630 99° East 536 617 37,000  Level FlightAware ADS-B
Wed 06:07:02 AM 51.5253 -0.8448 99° East 537 618 37,000  Level FlightAware ADS-B
Wed 06:07:33 AM 51.5128 -0.7247 99° East 537 618 37,000  Level FlightAware ADS-B
Wed 06:08:07 AM 51.4988 -0.5912 100° East 538 619 37,000  Level FlightAware ADS-B
Wed 06:08:37 AM 51.4863 -0.4712 99° East 537 618 37,000  Level FlightAware ADS-B
Wed 06:09:08 AM 51.4740 -0.3528 99° East 537 618 37,000  Level FlightAware ADS-B
Wed 06:09:41 AM 51.4601 -0.2205 100° East 539 620 37,000  Level FlightAware ADS-B
Wed 06:10:12 AM 51.4470 -0.0995 100° East 538 619 37,000  Level FlightAware ADS-B
Wed 06:10:43 AM 51.4339 0.0215 100° East 539 620 37,000  Level FlightAware ADS-B
Wed 06:11:13 AM 51.4211 0.1395 100° East 538 619 37,000  Level FlightAware ADS-B
Wed 06:11:44 AM 51.4075 0.2596 100° East 538 619 37,000  Level FlightAware ADS-B
Wed 06:12:19 AM 51.3922 0.3963 100° East 539 620 37,000  Level FlightAware ADS-B
Wed 06:12:54 AM 51.3763 0.5355 100° East 538 619 37,000  Level FlightAware ADS-B
Wed 06:13:24 AM 51.3627 0.6534 100° East 538 619 37,000  Level FlightAware ADS-B
Wed 06:13:57 AM 51.3478 0.7810 101° East 538 619 37,000  Level FlightAware ADS-B
Wed 06:14:33 AM 51.3313 0.9217 101° East 539 620 37,000  Level FlightAware ADS-B
Wed 06:15:06 AM 51.3160 1.0493 101° East 540 621 37,000  Level FlightAware ADS-B
Wed 06:15:40 AM 51.2980 1.1847 102° East 541 623 37,000  Level FlightAware ADS-B
Wed 06:16:17 AM 51.2740 1.3230 105° East 540 621 37,000  Level FlightAware ADS-B
Wed 06:16:53 AM 51.2500 1.4620 105° East 540 621 37,000  Level FlightAware ADS-B
Wed 06:17:30 AM 51.2250 1.6060 105° East 541 623 37,000  Level FlightAware ADS-B
Wed 06:18:05 AM 51.2030 1.7370 105° East 540 621 37,000  Level FlightAware ADS-B
Wed 06:18:37 AM 51.1810 1.8620 106° East 540 621 37,000  Level FlightAware ADS-B
Wed 06:19:12 AM 51.1590 1.9950 105° East 540 621 37,000  Level FlightAware ADS-B
Wed 06:19:51 AM 51.1330 2.1440 105° East 540 621 37,000  Level FlightAware ADS-B
Wed 06:20:22 AM 51.1130 2.2600 105° East 539 620 37,000  Level FlightAware ADS-B
Wed 06:20:58 AM 51.0880 2.4010 106° East 539 620 37,000  Level FlightAware ADS-B
Wed 06:21:34 AM 51.0650 2.5290 106° East 539 620 37,000  Level FlightAware ADS-B
Wed 06:22:13 AM 51.0380 2.6820 106° East 539 620 37,000  Level FlightAware ADS-B
Wed 06:22:53 AM 51.0090 2.8400 106° East 539 620 37,000  Level FlightAware ADS-B
Wed 06:23:23 AM 50.9890 2.9470 107° East 541 623 37,000  Level FlightAware ADS-B
Wed 06:23:59 AM 50.9630 3.0880 106° East 542 624 37,000  Level FlightAware ADS-B
Wed 06:24:37 AM 50.9360 3.2330 106° East 542 624 37,000  Level FlightAware ADS-B
Wed 06:25:06 AM 50.9150 3.3440 107° East 542 624 37,000 -91 Level FlightAware ADS-B
Wed 06:25:43 AM 50.8674 3.5051 107° East 494 568 36,900  Descending FlightAware UK
Wed 06:25:47 AM 50.8850 3.5010 107° East 543 625 37,000 162 Climbing FlightAware ADS-B
Wed 06:26:20 AM 50.8610 3.6240 107° East 543 625 37,000  Level FlightAware ADS-B
Wed 06:26:54 AM 50.8360 3.7530 107° East 544 626 37,000  Level FlightAware ADS-B
Wed 06:27:30 AM 50.8090 3.8900 107° East 544 626 37,000  Level FlightAware ADS-B
Wed 06:28:08 AM 50.7810 4.0340 107° East 544 626 37,000  Level FlightAware ADS-B
Wed 06:28:36 AM 50.7600 4.1360 108° East 545 627 37,000  Level FlightAware ADS-B
Wed 06:29:13 AM 50.7310 4.2830 107° East 545 627 37,000  Level FlightAware ADS-B
Wed 06:29:52 AM 50.7020 4.4250 108° East 545 627 37,000  Level FlightAware ADS-B
Wed 06:30:22 AM 50.6780 4.5430 108° East 546 628 37,000  Level FlightAware ADS-B
Wed 06:30:56 AM 50.6520 4.6710 108° East 547 629 37,000  Level FlightAware ADS-B
Wed 06:31:37 AM 50.6210 4.8240 108° East 547 629 37,000  Level FlightAware ADS-B
Wed 06:32:12 AM 50.5940 4.9530 108° East 548 631 37,000  Level FlightAware ADS-B
Wed 06:32:44 AM 50.5680 5.0770 108° East 548 631 37,000  Level FlightAware ADS-B
Wed 06:33:20 AM 50.5380 5.2150 109° East 548 631 37,000  Level FlightAware ADS-B
Wed 06:33:57 AM 50.5100 5.3490 108° East 548 631 37,000  Level FlightAware ADS-B
Wed 06:34:32 AM 50.4800 5.4860 109° East 549 632 37,000  Level FlightAware ADS-B
Wed 06:35:12 AM 50.4480 5.6370 108° East 548 631 37,000  Level FlightAware ADS-B
Wed 06:35:50 AM 50.4170 5.7820 108° East 549 632 37,000  Level FlightAware ADS-B
Wed 06:36:28 AM 50.3880 5.9160 109° East 550 633 37,000  Level FlightAware ADS-B
Wed 06:37:06 AM 50.3550 6.0670 109° East 550 633 37,000  Level FlightAware ADS-B
Wed 06:37:42 AM 50.3250 6.2020 109° East 551 634 37,000  Level FlightAware ADS-B
Wed 06:38:14 AM 50.2990 6.3170 109° East 552 635 37,000  Level FlightAware ADS-B
Wed 06:38:50 AM 50.2670 6.4590 109° East 552 635 37,000  Level FlightAware ADS-B
Wed 06:39:22 AM 50.2400 6.5800 109° East 553 636 37,000  Level FlightAware ADS-B
Wed 06:39:59 AM 50.2090 6.7100 110° East 554 638 37,000  Level FlightAware ADS-B
Wed 06:40:34 AM 50.1770 6.8500 110° East 554 638 37,000  Level FlightAware ADS-B
Wed 06:41:07 AM 50.1480 6.9720 110° East 553 636 37,000  Level FlightAware ADS-B
Wed 06:41:46 AM 50.1140 7.1150 110° East 552 635 37,000  Level FlightAware ADS-B
Wed 06:42:18 AM 50.0850 7.2390 110° East 552 635 37,000  Level FlightAware ADS-B
Wed 06:42:54 AM 50.0550 7.3670 110° East 552 635 37,000  Level FlightAware ADS-B
Wed 06:43:26 AM 50.0260 7.4900 110° East 552 635 37,000  Level FlightAware ADS-B
Wed 06:44:06 AM 49.9900 7.6390 111° Southeast 553 636 37,000  Level FlightAware ADS-B
Wed 06:44:38 AM 49.9620 7.7590 110° East 553 636 37,000  Level FlightAware ADS-B
Wed 06:45:14 AM 49.9300 7.8920 110° East 553 636 37,000  Level FlightAware ADS-B
Wed 06:45:50 AM 49.8990 8.0220 110° East 552 635 37,000  Level FlightAware ADS-B
Wed 06:46:26 AM 49.8650 8.1590 111° Southeast 551 634 37,000  Level FlightAware ADS-B
Wed 06:46:58 AM 49.8370 8.2740 111° Southeast 550 633 37,000  Level FlightAware ADS-B
Wed 06:47:22 AM 49.8110 8.3640 114° Southeast 550 633 37,000  Level FlightAware ADS-B
Wed 06:47:54 AM 49.7580 8.4560 132° Southeast 545 627 37,000  Level FlightAware ADS-B
Wed 06:48:28 AM 49.6850 8.5250 149° Southeast 539 620 37,000  Level FlightAware ADS-B
Wed 06:49:08 AM 49.5970 8.5890 155° Southeast 537 618 37,000  Level FlightAware ADS-B
Wed 06:49:40 AM 49.5240 8.6400 156° South 537 618 37,000  Level FlightAware ADS-B
Wed 06:50:16 AM 49.4430 8.6960 156° South 537 618 37,000  Level FlightAware ADS-B
Wed 06:50:56 AM 49.3600 8.7530 156° South 529 609 37,000  Level FlightAware ADS-B
Wed 06:51:31 AM 49.2730 8.8130 156° South 528 608 37,000  Level FlightAware ADS-B
Wed 06:52:06 AM 49.2010 8.8630 156° South 526 605 37,000  Level FlightAware ADS-B
Wed 06:52:42 AM 49.1180 8.9200 156° South 526 605 37,000  Level FlightAware ADS-B
Wed 06:53:16 AM 49.0360 8.9760 156° South 525 604 37,000  Level FlightAware ADS-B
Wed 06:53:51 AM 48.9590 9.0270 156° South 525 604 37,000  Level FlightAware ADS-B
Wed 06:54:26 AM 48.8810 9.0850 154° Southeast 535 616 37,000  Level FlightAware ADS-B
Wed 06:55:01 AM 48.8080 9.1520 149° Southeast 528 608 37,000  Level FlightAware ADS-B
Wed 06:55:38 AM 48.7280 9.2250 149° Southeast 534 615 37,000  Level FlightAware ADS-B
Wed 06:56:14 AM 48.6510 9.2930 150° Southeast 534 615 37,000  Level FlightAware ADS-B
Wed 06:56:45 AM 48.5880 9.3500 149° Southeast 526 605 37,000  Level FlightAware ADS-B
Wed 06:57:19 AM 48.5180 9.4140 149° Southeast 526 605 37,000  Level FlightAware ADS-B
Wed 06:57:59 AM 48.4300 9.4940 149° Southeast 525 604 37,000  Level FlightAware ADS-B
Wed 06:58:34 AM 48.3570 9.5600 149° Southeast 525 604 37,000  Level FlightAware ADS-B
Wed 06:59:05 AM 48.2920 9.6190 149° Southeast 523 602 37,000  Level FlightAware ADS-B
Wed 06:59:39 AM 48.2210 9.6820 149° Southeast 523 602 37,000  Level FlightAware ADS-B
Wed 07:00:19 AM 48.1350 9.7590 149° Southeast 528 608 37,000  Level FlightAware ADS-B
Wed 07:00:55 AM 48.0620 9.8240 149° Southeast 527 606 37,000  Level FlightAware ADS-B
Wed 07:01:25 AM 48.0030 9.8770 149° Southeast 527 606 37,000  Level FlightAware ADS-B
Wed 07:02:00 AM 47.9290 9.9430 149° Southeast 525 604 37,000  Level FlightAware ADS-B
Wed 07:02:40 AM 47.8390 10.0240 149° Southeast 525 604 37,000  Level FlightAware ADS-B
Wed 07:03:12 AM 47.7730 10.0820 149° Southeast 525 604 37,000  Level FlightAware ADS-B
Wed 07:03:46 AM 47.7050 10.1420 149° Southeast 527 606 37,000  Level FlightAware ADS-B
Wed 07:04:21 AM 47.6280 10.2100 149° Southeast 525 604 37,000  Level FlightAware ADS-B
Wed 07:04:56 AM 47.5570 10.2730 149° Southeast 524 603 37,000  Level FlightAware ADS-B
Wed 07:05:31 AM 47.4840 10.3360 150° Southeast 523 602 37,000  Level FlightAware ADS-B
Wed 07:06:06 AM 47.4100 10.4010 149° Southeast 521 600 37,000  Level FlightAware ADS-B
Wed 07:06:41 AM 47.3370 10.4640 150° Southeast 521 600 37,000  Level FlightAware ADS-B
Wed 07:07:16 AM 47.2640 10.5270 150° Southeast 520 598 37,000  Level FlightAware ADS-B
Wed 07:07:52 AM 47.1930 10.5880 150° Southeast 519 597 37,000  Level FlightAware ADS-B
Wed 07:08:26 AM 47.1190 10.6520 150° Southeast 518 596 37,000  Level FlightAware ADS-B
Wed 07:09:01 AM 47.0480 10.7150 149° Southeast 522 601 37,000  Level FlightAware ADS-B
Wed 07:09:36 AM 46.9860 10.7900 140° Southeast 522 601 37,000  Level FlightAware ADS-B
Wed 07:10:11 AM 46.9250 10.8860 133° Southeast 523 602 37,000  Level FlightAware ADS-B
Wed 07:10:46 AM 46.8660 10.9790 133° Southeast 528 608 37,000  Level FlightAware ADS-B
Wed 07:11:19 AM 46.8170 11.0560 133° Southeast 526 605 37,000  Level FlightAware ADS-B
Wed 07:11:56 AM 46.7520 11.1580 133° Southeast 522 601 37,000  Level FlightAware ADS-B
Wed 07:12:31 AM 46.6930 11.2500 133° Southeast 518 596 37,000  Level FlightAware ADS-B
Wed 07:13:09 AM 46.6330 11.3440 133° Southeast 516 594 37,000  Level FlightAware ADS-B
Wed 07:13:52 AM 46.5600 11.4570 133° Southeast 513 590 37,000  Level FlightAware ADS-B
Wed 07:14:30 AM 46.4980 11.5510 134° Southeast 512 589 37,000  Level FlightAware ADS-B
Wed 07:15:08 AM 46.4370 11.6460 133° Southeast 509 586 37,000  Level FlightAware ADS-B
Wed 07:15:41 AM 46.3850 11.7260 133° Southeast 509 586 37,000  Level FlightAware ADS-B
Wed 07:16:18 AM 46.3240 11.8170 134° Southeast 507 583 37,000  Level FlightAware ADS-B
Wed 07:16:46 AM 46.2830 11.8810 133° Southeast 507 583 37,000  Level FlightAware ADS-B
Wed 07:17:24 AM 46.2210 11.9740 134° Southeast 509 586 37,000  Level FlightAware ADS-B
Wed 07:18:01 AM 46.1560 12.0720 134° Southeast 510 587 37,000  Level FlightAware ADS-B
Wed 07:18:34 AM 46.1050 12.1500 133° Southeast 511 588 37,000  Level FlightAware ADS-B
Wed 07:19:09 AM 46.0490 12.2340 134° Southeast 512 589 37,000  Level FlightAware ADS-B
Wed 07:19:54 AM 45.9800 12.3450 132° Southeast 516 594 37,000  Level FlightAware ADS-B
Wed 07:20:29 AM 45.9260 12.4450 128° Southeast 511 588 37,000  Level FlightAware ADS-B
Wed 07:21:09 AM 45.8680 12.5550 127° Southeast 517 595 37,000  Level FlightAware ADS-B
Wed 07:21:44 AM 45.8180 12.6530 126° Southeast 517 595 37,000  Level FlightAware ADS-B
Wed 07:22:19 AM 45.7690 12.7450 127° Southeast 512 589 37,000  Level FlightAware ADS-B
Wed 07:23:00 AM 45.7090 12.8610 127° Southeast 515 593 37,000  Level FlightAware ADS-B
Wed 07:23:40 AM 45.6530 12.9650 128° Southeast 511 588 37,000  Level FlightAware ADS-B
Wed 07:24:11 AM 45.6070 13.0530 127° Southeast 511 588 37,000  Level FlightAware ADS-B
Wed 07:24:45 AM 45.5590 13.1430 127° Southeast 510 587 37,000  Level FlightAware ADS-B
Wed 07:25:21 AM 45.5080 13.2380 127° Southeast 509 586 37,000  Level FlightAware ADS-B
Wed 07:25:55 AM 45.4590 13.3300 127° Southeast 511 588 37,000  Level FlightAware ADS-B
Wed 07:26:30 AM 45.4120 13.4180 127° Southeast 511 588 37,000  Level FlightAware ADS-B
Wed 07:27:10 AM 45.3500 13.5360 127° Southeast 512 589 37,000  Level FlightAware ADS-B
Wed 07:27:50 AM 45.2980 13.6340 127° Southeast 512 589 37,000  Level FlightAware ADS-B
Wed 07:28:31 AM 45.2370 13.7500 127° Southeast 510 587 37,000  Level FlightAware ADS-B
Wed 07:29:06 AM 45.1880 13.8420 127° Southeast 508 585 37,000  Level FlightAware ADS-B
Wed 07:29:40 AM 45.1390 13.9310 128° Southeast 501 577 37,000  Level FlightAware ADS-B
Wed 07:30:15 AM 45.0870 14.0260 128° Southeast 501 577 37,000  Level FlightAware ADS-B
Wed 07:30:50 AM 45.0360 14.1170 128° Southeast 502 578 37,000  Level FlightAware ADS-B
Wed 07:31:26 AM 44.9890 14.2020 128° Southeast 501 577 37,000  Level FlightAware ADS-B
Wed 07:32:00 AM 44.9370 14.2970 128° Southeast 506 582 37,000  Level FlightAware ADS-B
Wed 07:32:36 AM 44.8840 14.3920 128° Southeast 502 578 37,000  Level FlightAware ADS-B
Wed 07:33:10 AM 44.8350 14.4810 128° Southeast 505 581 37,000  Level FlightAware ADS-B
Wed 07:33:58 AM 44.7660 14.6060 128° Southeast 505 581 37,000  Level FlightAware ADS-B
Wed 07:34:31 AM 44.7180 14.6910 128° Southeast 503 579 37,000  Level FlightAware ADS-B
Wed 07:35:16 AM 44.6620 14.7940 127° Southeast 503 579 37,000  Level FlightAware ADS-B
Wed 07:36:02 AM 44.5890 14.9220 129° Southeast 499 574 37,000  Level FlightAware ADS-B
Wed 07:36:40 AM 44.5380 15.0120 128° Southeast 498 573 37,000  Level FlightAware ADS-B
Wed 07:37:19 AM 44.4740 15.1260 128° Southeast 496 571 37,000  Level FlightAware ADS-B
Wed 07:37:54 AM 44.4280 15.2060 129° Southeast 495 570 37,000  Level FlightAware ADS-B
Wed 07:38:28 AM 44.3770 15.2970 128° Southeast 493 567 37,000  Level FlightAware ADS-B
Wed 07:39:13 AM 44.3100 15.4120 129° Southeast 492 566 37,000  Level FlightAware ADS-B
Wed 07:39:53 AM 44.2550 15.5080 129° Southeast 492 566 37,000  Level FlightAware ADS-B
Wed 07:40:32 AM 44.1950 15.6110 129° Southeast 494 568 37,000  Level FlightAware ADS-B
Wed 07:41:16 AM 44.1360 15.7130 129° Southeast 494 568 37,000  Level FlightAware ADS-B
Wed 07:41:51 AM 44.0830 15.8050 129° Southeast 494 568 37,000  Level FlightAware ADS-B
Wed 07:42:30 AM 44.0230 15.9070 129° Southeast 494 568 37,000  Level FlightAware ADS-B
Wed 07:43:05 AM 43.9740 15.9920 129° Southeast 494 568 37,000  Level FlightAware ADS-B
Wed 07:43:40 AM 43.9230 16.0780 129° Southeast 495 570 37,000  Level FlightAware ADS-B
Wed 07:44:19 AM 43.8660 16.1750 129° Southeast 496 571 37,000  Level FlightAware ADS-B
Wed 07:44:54 AM 43.8140 16.2640 129° Southeast 502 578 37,000  Level FlightAware ADS-B
Wed 07:45:33 AM 43.7570 16.3600 129° Southeast 502 578 37,000  Level FlightAware ADS-B
Wed 07:46:08 AM 43.7060 16.4440 130° Southeast 502 578 37,000  Level FlightAware ADS-B
Wed 07:46:42 AM 43.6570 16.5270 129° Southeast 502 578 37,000  Level FlightAware ADS-B
Wed 07:47:17 AM 43.6030 16.6170 130° Southeast 502 578 37,000  Level FlightAware ADS-B
Wed 07:47:56 AM 43.5430 16.7170 130° Southeast 502 578 37,000  Level FlightAware ADS-B
Wed 07:48:32 AM 43.4920 16.8020 130° Southeast 501 577 37,000  Level FlightAware ADS-B
Wed 07:49:04 AM 43.4430 16.8830 130° Southeast 501 577 37,000  Level FlightAware ADS-B
Wed 07:49:40 AM 43.3890 16.9710 130° Southeast 501 577 37,000  Level FlightAware ADS-B
Wed 07:50:14 AM 43.3390 17.0530 130° Southeast 502 578 37,000  Level FlightAware ADS-B
Wed 07:50:48 AM 43.2880 17.1370 130° Southeast 503 579 37,000  Level FlightAware ADS-B
Wed 07:51:24 AM 43.2330 17.2260 130° Southeast 503 579 37,000  Level FlightAware ADS-B
Wed 07:52:00 AM 43.1790 17.3150 130° Southeast 505 581 37,000  Level FlightAware ADS-B
Wed 07:52:36 AM 43.1250 17.4010 131° Southeast 506 582 37,000  Level FlightAware ADS-B
Wed 07:53:08 AM 43.0760 17.4810 130° Southeast 506 582 37,000  Level FlightAware ADS-B
Wed 07:53:44 AM 43.0210 17.5690 131° Southeast 506 582 37,000  Level FlightAware ADS-B
Wed 07:54:20 AM 42.9680 17.6530 131° Southeast 505 581 37,000  Level FlightAware ADS-B
Wed 07:54:56 AM 42.9130 17.7420 130° Southeast 505 581 37,000  Level FlightAware ADS-B
Wed 07:55:36 AM 42.8530 17.8380 130° Southeast 504 580 37,000  Level FlightAware ADS-B
Wed 07:56:10 AM 42.8030 17.9190 130° Southeast 503 579 37,000  Level FlightAware ADS-B
Wed 07:56:49 AM 42.7420 18.0170 130° Southeast 502 578 37,000  Level FlightAware ADS-B
Wed 07:57:19 AM 42.6980 18.0860 131° Southeast 502 578 37,000  Level FlightAware ADS-B
Wed 07:57:56 AM 42.6500 18.1630 130° Southeast 496 571 37,000  Level FlightAware ADS-B
Wed 07:58:33 AM 42.5850 18.2560 133° Southeast 499 574 37,000  Level FlightAware ADS-B
Wed 07:59:05 AM 42.5290 18.3300 136° Southeast 499 574 37,000  Level FlightAware ADS-B
Wed 07:59:43 AM 42.4670 18.4130 135° Southeast 501 577 37,000  Level FlightAware ADS-B
Wed 08:00:19 AM 42.4070 18.4940 135° Southeast 502 578 37,000  Level FlightAware ADS-B
Wed 08:00:49 AM 42.3610 18.5570 135° Southeast 502 578 37,000  Level FlightAware ADS-B
Wed 08:01:27 AM 42.2970 18.6430 135° Southeast 502 578 37,000  Level FlightAware ADS-B
Wed 08:02:03 AM 42.2380 18.7220 135° Southeast 502 578 37,000  Level FlightAware ADS-B
Wed 08:02:37 AM 42.1800 18.8000 135° Southeast 502 578 37,000  Level FlightAware ADS-B
Wed 08:03:07 AM 42.1310 18.8650 135° Southeast 502 578 37,000  Level FlightAware ADS-B
Wed 08:03:45 AM 42.0680 18.9490 135° Southeast 502 578 37,000  Level FlightAware ADS-B
Wed 08:04:21 AM 42.0080 19.0290 135° Southeast 503 579 37,000  Level FlightAware ADS-B
Wed 08:04:58 AM 41.9490 19.1080 135° Southeast 502 578 37,000  Level FlightAware ADS-B
Wed 08:05:33 AM 41.8900 19.1850 136° Southeast 502 578 37,000  Level FlightAware ADS-B
Wed 08:06:05 AM 41.8370 19.2550 135° Southeast 502 578 37,000  Level FlightAware ADS-B
Wed 08:06:41 AM 41.7750 19.3320 137° Southeast 501 577 37,000  Level FlightAware ADS-B
Wed 08:07:15 AM 41.7160 19.4000 139° Southeast 501 577 37,000  Level FlightAware ADS-B
Wed 08:07:53 AM 41.6470 19.4770 140° Southeast 502 578 37,000  Level FlightAware ADS-B
Wed 08:08:23 AM 41.5940 19.5350 141° Southeast 502 578 37,000  Level FlightAware ADS-B
Wed 08:09:03 AM 41.5220 19.6150 140° Southeast 503 579 37,000  Level FlightAware ADS-B
Wed 08:09:35 AM 41.4650 19.6780 140° Southeast 503 579 37,000  Level FlightAware ADS-B
Wed 08:10:13 AM 41.3980 19.7590 138° Southeast 504 580 37,000  Level FlightAware ADS-B
Wed 08:10:45 AM 41.3470 19.8270 135° Southeast 505 581 37,000  Level FlightAware ADS-B
Wed 08:11:13 AM 41.3020 19.8870 135° Southeast 505 581 37,000  Level FlightAware ADS-B
Wed 08:11:51 AM 41.2510 19.9550 135° Southeast 506 582 37,000  Level FlightAware ADS-B
Wed 08:12:27 AM 41.1780 20.0510 135° Southeast 506 582 37,000  Level FlightAware ADS-B
Wed 08:12:59 AM 41.1260 20.1210 135° Southeast 508 585 37,000  Level FlightAware ADS-B
Wed 08:13:37 AM 41.0610 20.2050 136° Southeast 508 585 37,000  Level FlightAware ADS-B
Wed 08:14:09 AM 41.0100 20.2720 135° Southeast 509 586 37,000  Level FlightAware ADS-B
Wed 08:14:45 AM 40.9470 20.3540 135° Southeast 509 586 37,000  Level FlightAware ADS-B
Wed 08:15:19 AM 40.8900 20.4290 135° Southeast 509 586 37,000  Level FlightAware ADS-B
Wed 08:15:55 AM 40.8310 20.5040 136° Southeast 509 586 37,000  Level FlightAware ADS-B
Wed 08:16:31 AM 40.7690 20.5860 135° Southeast 509 586 37,000  Level FlightAware ADS-B
Wed 08:17:07 AM 40.7080 20.6640 136° Southeast 509 586 37,000  Level FlightAware ADS-B
Wed 08:17:39 AM 40.6540 20.7340 135° Southeast 509 586 37,000  Level FlightAware ADS-B
Wed 08:18:15 AM 40.5940 20.8110 136° Southeast 509 586 37,000  Level FlightAware ADS-B
Wed 08:18:49 AM 40.5370 20.8850 135° Southeast 509 586 37,000  Level FlightAware ADS-B
Wed 08:19:25 AM 40.4800 20.9570 136° Southeast 508 585 37,000  Level FlightAware ADS-B
Wed 08:20:01 AM 40.4120 21.0360 138° Southeast 506 582 37,000  Level FlightAware ADS-B
Wed 08:20:33 AM 40.3550 21.1010 139° Southeast 505 581 37,000  Level FlightAware ADS-B
Wed 08:21:01 AM 40.3050 21.1560 140° Southeast 504 580 37,000  Level FlightAware ADS-B
Wed 08:21:37 AM 40.2430 21.2270 139° Southeast 504 580 37,000  Level FlightAware ADS-B
Wed 08:22:13 AM 40.1790 21.3000 139° Southeast 505 581 37,000  Level FlightAware ADS-B
Wed 08:22:45 AM 40.1220 21.3640 139° Southeast 504 580 37,000  Level FlightAware ADS-B
Wed 08:23:21 AM 40.0590 21.4350 139° Southeast 505 581 37,000  Level FlightAware ADS-B
Wed 08:23:57 AM 39.9970 21.5060 139° Southeast 504 580 37,000  Level FlightAware ADS-B
Wed 08:24:31 AM 39.9370 21.5740 139° Southeast 505 581 37,000  Level FlightAware ADS-B
Wed 08:25:07 AM 39.8720 21.6470 139° Southeast 505 581 37,000  Level FlightAware ADS-B
Wed 08:25:43 AM 39.8090 21.7180 139° Southeast 506 582 37,000  Level FlightAware ADS-B
Wed 08:26:19 AM 39.7430 21.7900 140° Southeast 506 582 37,000  Level FlightAware ADS-B
Wed 08:26:51 AM 39.6890 21.8560 137° Southeast 508 585 37,000  Level FlightAware ADS-B
Wed 08:27:27 AM 39.6320 21.9360 133° Southeast 509 586 37,000  Level FlightAware ADS-B
Wed 08:28:03 AM 39.5740 22.0200 132° Southeast 510 587 37,000  Level FlightAware ADS-B
Wed 08:28:39 AM 39.5190 22.1010 131° Southeast 510 587 37,000  Level FlightAware ADS-B
Wed 08:29:11 AM 39.4690 22.1740 132° Southeast 510 587 37,000  Level FlightAware ADS-B
Wed 08:29:47 AM 39.4130 22.2570 131° Southeast 510 587 37,000  Level FlightAware ADS-B
Wed 08:30:23 AM 39.3560 22.3400 132° Southeast 510 587 37,000  Level FlightAware ADS-B
Wed 08:31:00 AM 39.3000 22.4220 131° Southeast 510 587 37,000  Level FlightAware ADS-B
Wed 08:31:36 AM 39.2430 22.5060 131° Southeast 510 587 37,000  Level FlightAware ADS-B
Wed 08:32:08 AM 39.1940 22.5760 132° Southeast 509 586 37,000  Level FlightAware ADS-B
Wed 08:32:45 AM 39.1350 22.6620 131° Southeast 509 586 37,000  Level FlightAware ADS-B
Wed 08:33:17 AM 39.0840 22.7360 132° Southeast 509 586 37,000  Level FlightAware ADS-B
Wed 08:34:03 AM 39.0210 22.8290 131° Southeast 508 585 37,000  Level FlightAware ADS-B
Wed 08:34:50 AM 38.9450 22.9380 132° Southeast 508 585 37,000  Level FlightAware ADS-B
Wed 08:35:25 AM 38.8870 23.0220 132° Southeast 508 585 37,000  Level FlightAware ADS-B
Wed 08:36:04 AM 38.8360 23.0970 131° Southeast 508 585 37,000  Level FlightAware ADS-B
Wed 08:36:41 AM 38.7880 23.1690 131° Southeast 508 585 37,000  Level FlightAware ADS-B
Wed 08:37:13 AM 38.7160 23.2690 133° Southeast 506 582 37,000  Level FlightAware ADS-B
Wed 08:37:59 AM 38.6550 23.3590 131° Southeast 505 581 37,000  Level FlightAware ADS-B
Wed 08:38:29 AM 38.6050 23.4290 132° Southeast 497 572 37,000  Level FlightAware ADS-B
Wed 08:39:09 AM 38.5380 23.5240 132° Southeast 496 571 37,000  Level FlightAware ADS-B
Wed 08:39:43 AM 38.4920 23.5900 132° Southeast 496 571 37,000  Level FlightAware ADS-B
Wed 08:40:15 AM 38.4350 23.6710 132° Southeast 496 571 37,000  Level FlightAware ADS-B
Wed 08:40:51 AM 38.3850 23.7440 131° Southeast 498 573 37,000  Level FlightAware ADS-B
Wed 08:41:30 AM 38.3210 23.8340 132° Southeast 503 579 37,000  Level FlightAware ADS-B
Wed 08:42:06 AM 38.2690 23.9090 131° Southeast 504 580 37,000  Level FlightAware ADS-B
Wed 08:42:38 AM 38.2160 23.9840 132° Southeast 504 580 37,000  Level FlightAware ADS-B
Wed 08:43:11 AM 38.1600 24.0620 132° Southeast 504 580 37,000  Level FlightAware ADS-B
Wed 08:43:45 AM 38.1130 24.1290 132° Southeast 504 580 37,000  Level FlightAware ADS-B
Wed 08:44:22 AM 38.0550 24.2090 133° Southeast 505 581 37,000  Level FlightAware ADS-B
Wed 08:44:59 AM 37.9910 24.2980 132° Southeast 506 582 37,000  Level FlightAware ADS-B
Wed 08:45:35 AM 37.9340 24.3780 132° Southeast 506 582 37,000  Level FlightAware ADS-B
Wed 08:46:09 AM 37.8800 24.4530 132° Southeast 508 585 37,000  Level FlightAware ADS-B
Wed 08:46:45 AM 37.8240 24.5320 132° Southeast 508 585 37,000  Level FlightAware ADS-B
Wed 08:47:21 AM 37.7680 24.6110 132° Southeast 508 585 37,000  Level FlightAware ADS-B
Wed 08:47:53 AM 37.7160 24.6830 132° Southeast 507 583 37,000  Level FlightAware ADS-B
Wed 08:48:29 AM 37.6600 24.7620 132° Southeast 508 585 37,000  Level FlightAware ADS-B
Wed 08:49:07 AM 37.6000 24.8460 132° Southeast 507 583 37,000  Level FlightAware ADS-B
Wed 08:49:39 AM 37.5500 24.9150 132° Southeast 506 582 37,000  Level FlightAware ADS-B
Wed 08:50:15 AM 37.4930 24.9950 132° Southeast 506 582 37,000  Level FlightAware ADS-B
Wed 08:50:49 AM 37.4390 25.0690 133° Southeast 506 582 37,000  Level FlightAware ADS-B
Wed 08:51:21 AM 37.3880 25.1390 133° Southeast 506 582 37,000  Level FlightAware ADS-B
Wed 08:52:01 AM 37.3250 25.2250 133° Southeast 506 582 37,000  Level FlightAware ADS-B
Wed 08:52:33 AM 37.2740 25.2940 133° Southeast 506 582 37,000  Level FlightAware ADS-B
Wed 08:53:09 AM 37.2180 25.3700 133° Southeast 505 581 37,000  Level FlightAware ADS-B
Wed 08:53:45 AM 37.1610 25.4490 132° Southeast 505 581 37,000  Level FlightAware ADS-B
Wed 08:54:21 AM 37.1040 25.5260 133° Southeast 505 581 37,000  Level FlightAware ADS-B
Wed 08:54:53 AM 37.0530 25.5950 133° Southeast 505 581 37,000  Level FlightAware ADS-B
Wed 08:55:31 AM 36.9920 25.6770 133° Southeast 505 581 37,000  Level FlightAware ADS-B
Wed 08:56:03 AM 36.9420 25.7460 132° Southeast 505 581 37,000  Level FlightAware ADS-B
Wed 08:56:39 AM 36.8840 25.8230 133° Southeast 505 581 37,000  Level FlightAware ADS-B
Wed 08:57:15 AM 36.8260 25.9010 133° Southeast 505 581 37,000  Level FlightAware ADS-B
Wed 08:57:51 AM 36.7680 25.9780 133° Southeast 504 580 37,000  Level FlightAware ADS-B
Wed 08:58:25 AM 36.7170 26.0490 132° Southeast 504 580 37,000  Level FlightAware ADS-B
Wed 08:59:01 AM 36.6600 26.1260 133° Southeast 504 580 37,000  Level FlightAware ADS-B
Wed 08:59:33 AM 36.6090 26.1960 132° Southeast 505 581 37,000  Level FlightAware ADS-B
Wed 09:00:09 AM 36.5620 26.2820 124° Southeast 515 593 37,000  Level FlightAware ADS-B
Wed 09:00:45 AM 36.5230 26.3780 117° Southeast 518 596 37,000  Level FlightAware ADS-B
Wed 09:01:19 AM 36.4880 26.4700 115° Southeast 518 596 37,000  Level FlightAware ADS-B
Wed 09:01:55 AM 36.4500 26.5670 116° Southeast 517 595 37,000  Level FlightAware ADS-B
Wed 09:02:29 AM 36.4140 26.6580 116° Southeast 517 595 37,000  Level FlightAware ADS-B
Wed 09:03:07 AM 36.3740 26.7580 116° Southeast 517 595 37,000  Level FlightAware ADS-B
Wed 09:03:39 AM 36.3410 26.8410 116° Southeast 516 594 37,000  Level FlightAware ADS-B
Wed 09:04:15 AM 36.3020 26.9380 116° Southeast 515 593 37,000  Level FlightAware ADS-B
Wed 09:04:54 AM 36.2650 27.0310 116° Southeast 515 593 37,000  Level FlightAware ADS-B
Wed 09:05:28 AM 36.2240 27.1300 117° Southeast 514 592 37,000  Level FlightAware ADS-B
Wed 09:06:08 AM 36.1810 27.2370 116° Southeast 514 592 37,000  Level FlightAware ADS-B
Wed 09:06:43 AM 36.1450 27.3260 117° Southeast 514 592 37,000  Level FlightAware ADS-B
Wed 09:07:25 AM 36.1050 27.4260 116° Southeast 514 592 37,000  Level FlightAware ADS-B
Wed 09:07:58 AM 36.0700 27.5120 117° Southeast 514 592 37,000  Level FlightAware ADS-B
Wed 09:08:34 AM 36.0380 27.5930 116° Southeast 514 592 37,000  Level FlightAware ADS-B
Wed 09:09:08 AM 35.9880 27.7020 120° Southeast 510 587 37,000  Level FlightAware ADS-B
Wed 09:09:48 AM 35.9470 27.7880 120° Southeast 510 587 37,000  Level FlightAware ADS-B
Wed 09:10:25 AM 35.9100 27.8680 120° Southeast 510 587 37,000  Level FlightAware ADS-B
Wed 09:11:01 AM 35.8740 27.9450 120° Southeast 510 587 37,000  Level FlightAware ADS-B
Wed 09:11:38 AM 35.8370 28.0240 120° Southeast 510 587 37,000  Level FlightAware ADS-B
Wed 09:12:11 AM 35.8040 28.0950 120° Southeast 510 587 37,000  Level FlightAware ADS-B
Wed 09:12:55 AM 35.6870 28.2330 136° Southeast 505 581 37,000  Level FlightAware ADS-B
Wed 09:13:31 AM 35.6460 28.3050 125° Southeast 505 581 37,000  Level FlightAware ADS-B
Wed 09:14:02 AM 35.5890 28.3960 128° Southeast 507 583 37,000  Level FlightAware ADS-B
Wed 09:14:38 AM 35.5390 28.4810 126° Southeast 509 586 37,000  Level FlightAware ADS-B
Wed 09:15:14 AM 35.4880 28.5670 126° Southeast 511 588 37,000  Level FlightAware ADS-B
Wed 09:15:47 AM 35.4430 28.6420 126° Southeast 511 588 37,000  Level FlightAware ADS-B
Wed 09:16:24 AM 35.3910 28.7310 126° Southeast 511 588 37,000  Level FlightAware ADS-B
Wed 09:16:56 AM 35.3460 28.8050 127° Southeast 509 586 37,000  Level FlightAware ADS-B
Wed 09:17:29 AM 35.3030 28.8770 126° Southeast 508 585 37,000  Level FlightAware ADS-B
Wed 09:18:09 AM 35.2470 28.9690 127° Southeast 502 578 37,000  Level FlightAware ADS-B
Wed 09:19:02 AM 35.1850 29.0740 126° Southeast 500 575 37,000  Level FlightAware ADS-B
Wed 09:19:35 AM 35.1260 29.1670 128° Southeast 497 572 37,000  Level FlightAware ADS-B
Wed 09:20:28 AM 35.0650 29.2680 126° Southeast 496 571 37,000  Level FlightAware ADS-B
Wed 09:21:06 AM 35.0050 29.3640 127° Southeast 495 570 37,000  Level FlightAware ADS-B
Wed 09:21:44 AM 34.9620 29.4370 126° Southeast 495 570 37,000  Level FlightAware ADS-B
Wed 09:22:21 AM 34.8960 29.5420 127° Southeast 494 568 37,000  Level FlightAware ADS-B
Wed 09:23:01 AM 34.8410 29.6310 127° Southeast 494 568 37,000  Level FlightAware ADS-B
Wed 09:23:36 AM 34.7920 29.7100 127° Southeast 493 567 37,000  Level FlightAware ADS-B
Wed 09:24:15 AM 34.7370 29.7980 127° Southeast 495 570 37,000  Level FlightAware ADS-B
Wed 09:24:51 AM 34.6900 29.8740 127° Southeast 502 578 37,000  Level FlightAware ADS-B
Wed 09:25:41 AM 34.6220 29.9830 127° Southeast 503 579 37,000  Level FlightAware ADS-B
Wed 09:26:17 AM 34.5790 30.0520 127° Southeast 503 579 37,000  Level FlightAware ADS-B
Wed 09:26:26 AM 34.5670 30.1050 105° East 754 868 37,000  Level FlightAware ADS-B
Wed 09:27:07 AM 34.5190 30.2070 120° Southeast 506 582 37,000  Level FlightAware ADS-B
Wed 09:27:42 AM 34.4770 30.2950 120° Southeast 510 587 37,000  Level FlightAware ADS-B
Wed 09:28:16 AM 34.4370 30.3750 121° Southeast 506 582 37,000  Level FlightAware ADS-B
Wed 09:28:52 AM 34.3920 30.4640 121° Southeast 506 582 37,000  Level FlightAware ADS-B
Wed 09:29:27 AM 34.3480 30.5530 121° Southeast 506 582 37,000  Level FlightAware ADS-B
Wed 09:30:03 AM 34.3050 30.6390 121° Southeast 506 582 37,000  Level FlightAware ADS-B
Wed 09:30:37 AM 34.2680 30.7140 121° Southeast 510 587 37,000  Level FlightAware ADS-B
Wed 09:31:18 AM 34.2150 30.8210 121° Southeast 510 587 37,000  Level FlightAware ADS-B
Wed 09:31:53 AM 34.1720 30.9060 121° Southeast 510 587 37,000  Level FlightAware ADS-B
Wed 09:32:28 AM 34.1320 30.9880 120° Southeast 509 586 37,000  Level FlightAware ADS-B
Wed 09:33:02 AM 34.0880 31.0750 121° Southeast 509 586 37,000  Level FlightAware ADS-B
Wed 09:33:38 AM 34.0440 31.1630 121° Southeast 506 582 37,000  Level FlightAware ADS-B
Wed 09:34:12 AM 34.0020 31.2470 121° Southeast 505 581 37,000  Level FlightAware ADS-B
Wed 09:34:48 AM 33.9590 31.3340 121° Southeast 505 581 37,000  Level FlightAware ADS-B
Wed 09:35:24 AM 33.9150 31.4200 122° Southeast 505 581 37,000  Level FlightAware ADS-B
Wed 09:35:58 AM 33.8730 31.5040 121° Southeast 506 582 37,000  Level FlightAware ADS-B
Wed 09:36:34 AM 33.8280 31.5920 122° Southeast 507 583 37,000  Level FlightAware ADS-B
Wed 09:37:10 AM 33.7850 31.6780 121° Southeast 507 583 37,000  Level FlightAware ADS-B
Wed 09:37:49 AM 33.7360 31.7730 122° Southeast 507 583 37,000  Level FlightAware ADS-B
Wed 09:38:25 AM 33.6910 31.8610 122° Southeast 507 583 37,000  Level FlightAware ADS-B
Wed 09:39:00 AM 33.6480 31.9450 122° Southeast 507 583 37,000  Level FlightAware ADS-B
Wed 09:39:36 AM 33.6040 32.0320 121° Southeast 506 582 37,000  Level FlightAware ADS-B
Wed 09:40:11 AM 33.5610 32.1150 122° Southeast 505 581 37,000  Level FlightAware ADS-B
Wed 09:40:52 AM 33.5110 32.2110 122° Southeast 505 581 37,000  Level FlightAware ADS-B
Wed 09:41:26 AM 33.4670 32.2970 122° Southeast 505 581 37,000  Level FlightAware ADS-B
Wed 09:42:09 AM 33.4180 32.3920 122° Southeast 504 580 37,000 -74 Level FlightAware ADS-B
Wed 09:42:47 AM 33.3690 32.4850 122° Southeast 501 577 36,900 -435 Descending FlightAware ADS-B
Wed 09:43:18 AM 33.3320 32.5570 122° Southeast 500 575 36,500 -1,235 Descending FlightAware ADS-B
Wed 09:43:55 AM 33.2860 32.6440 122° Southeast 502 578 35,500 -2,400 Descending FlightAware ADS-B
Wed 09:44:28 AM 33.2430 32.7260 122° Southeast 503 579 33,700 -2,866 Descending FlightAware ADS-B
Wed 09:45:02 AM 33.2000 32.8090 122° Southeast 492 566 32,300 -2,763 Descending FlightAware ADS-B
Wed 09:45:44 AM 33.1500 32.9040 122° Southeast 490 564 30,200 -3,273 Descending FlightAware ADS-B
Wed 09:46:30 AM 33.0950 33.0080 122° Southeast 493 567 27,500 -2,374 Descending FlightAware ADS-B
Wed 09:47:15 AM 33.0470 33.1010 122° Southeast 491 565 26,600 -684 Descending FlightAware ADS-B
Wed 09:47:49 AM 33.0130 33.1680 121° Southeast 491 565 26,600  Level FlightAware ADS-B
Wed 09:48:27 AM 32.9760 33.2430 120° Southeast 491 565 26,600 -3,000 Level FlightAware ADS-B
Wed 09:49:01 AM 32.9210 33.3380 125° Southeast 411 473 23,000 -3,771 Descending FlightAware ADS-B
Wed 09:49:37 AM 32.8860 33.4050 122° Southeast 377 434 22,200 -1,286 Descending FlightAware ADS-B
Wed 09:50:11 AM 32.8560 33.4610 123° Southeast 364 419 21,500 -1,333 Descending FlightAware ADS-B
Wed 09:50:49 AM 32.8220 33.5240 123° Southeast 353 406 20,600 -1,417 Descending FlightAware ADS-B
Wed 09:51:23 AM 32.7920 33.5820 122° Southeast 342 394 19,800 -1,324 Descending FlightAware ADS-B
Wed 09:51:57 AM 32.7640 33.6330 123° Southeast 333 383 19,100 -1,286 Descending FlightAware ADS-B
Wed 09:52:33 AM 32.7350 33.6880 122° Southeast 325 374 18,300 -1,324 Descending FlightAware ADS-B
Wed 09:53:05 AM 32.7080 33.7390 122° Southeast 327 376 17,600 -1,286 Descending FlightAware ADS-B
Wed 09:53:43 AM 32.6770 33.7960 123° Southeast 329 379 16,800 -800 Descending FlightAware ADS-B
Wed 09:54:20 AM 32.6510 33.8460 122° Southeast 329 379 16,600 -1,254 Descending FlightAware ADS-B
Wed 09:54:50 AM 32.6240 33.8970 122° Southeast 319 367 15,400 -1,701 Descending FlightAware ADS-B
Wed 09:55:27 AM 32.5940 33.9520 123° Southeast 311 358 14,700 -1,200 Descending FlightAware ADS-B
Wed 09:56:15 AM 32.5580 34.0200 122° Southeast 310 357 13,700 -1,200 Descending FlightAware ADS-B
Wed 09:56:52 AM 32.5310 34.0720 122° Southeast 309 356 13,000 -759 Descending FlightAware ADS-B
Wed 09:57:34 AM 32.5020 34.1280 122° Southeast 309 356 12,700 -1,200 Descending FlightAware ADS-B
Wed 09:57:57 AM 32.4760 34.1650 130° Southeast 306 352 11,700 -1,895 Descending FlightAware ADS-B
Wed 09:58:31 AM 32.4430 34.2050 134° Southeast 312 359 10,900 -1,371 Descending FlightAware ADS-B
Wed 09:59:07 AM 32.4060 34.2490 135° Southeast 306 352 10,100 -545 Descending FlightAware ADS-B
Wed 09:59:48 AM 32.3710 34.2900 135° Southeast 292 336 10,200 -984 Climbing FlightAware ADS-B
Wed 10:00:08 AM 32.3470 34.3160 138° Southeast 287 330 9,100 -1,469 Descending FlightAware ADS-B
Wed 10:00:37 AM 32.3230 34.3430 136° Southeast 287 330 9,000 -146 Descending FlightAware ADS-B
Wed 10:00:49 AM 32.3130 34.3540 137° Southeast 287 330 9,000  Level FlightAware ADS-B
Wed 10:01:14 AM 32.2930 34.3770 136° Southeast 287 330 9,000  Level FlightAware ADS-B
Wed 10:01:38 AM 32.2740 34.3990 136° Southeast 287 330 9,000  Level FlightAware ADS-B
Wed 10:02:02 AM 32.2540 34.4220 136° Southeast 287 330 9,000  Level FlightAware ADS-B
Wed 10:04:00 AM 32.0817 34.7040 115° Southeast  Level FlightAware Approximate
Wed 10:05:00 AM 32.0065 34.8559 125° Southeast  Level FlightAware Approximate
Wed 10:06:00 AM 32.0000 34.8667 125° Southeast  Level FlightAware Approximate
Wed 10:07:00 AM 32.0095 34.8769 125° Southeast  Level Estimated
Wed 10:08:00 AM 32.0095 34.8769 125° Southeast  Level Estimated
Wed 10:09:00 AM 32.0095 34.8769 125° Southeast  Level Estimated
Wed 10:10:00 AM 32.0095 34.8769 125° Southeast  Level Estimated
Wed 10:11:00 AM 32.0095 34.8769 125° Southeast  Level Estimated
Wed 10:12:00 AM 32.0095 34.8769 125° Southeast  Level Estimated
Wed 10:13:00 AM 32.0095 34.8769 125° Southeast  Level Estimated
Wed 10:14:00 AM 32.0095 34.8769 125° Southeast  Level Estimated

Login

Don't have an account? Register now (free) for customized features, flight alerts, and more!